Observation data for Fort McKavett on 05/24/2019      Previous  Date  Next       Current Mesonet Observations  Soil Data  Daily Summary Page  Observations in Plain Language
KMC1 240500Z 13009KT 25/20 A2994 RMK A01 T02450203  RH  077%=      5-min Rain = 0
KMC1 240501Z 13013G18KT 25/20 A2994 RMK A01 T02450203  RH  077%=      5-min Rain = 0
KMC1 240502Z 14012KT 25/20 A2994 RMK A01 T02450202  RH  077%=      5-min Rain = 0
KMC1 240503Z 13008KT 25/20 A2994 RMK A01 T02450203  RH  077%=      5-min Rain = 0
KMC1 240504Z 13010KT 25/20 A2994 RMK A01 T02450203  RH  077%=      5-min Rain = 0
KMC1 240505Z 14009G14KT 25/20 A2994 RMK A01 T02460203  RH  077%=      5-min Rain = 0
KMC1 240506Z 13010KT 25/20 A2994 RMK A01 T02450203  RH  077%=      5-min Rain = 0
KMC1 240507Z 13010G16KT 25/20 A2994 RMK A01 T02450203  RH  077%=      5-min Rain = 0
KMC1 240508Z 14012KT 25/20 A2993 RMK A01 T02450203  RH  077%=      5-min Rain = 0
KMC1 240509Z 14010G15KT 25/20 A2994 RMK A01 T02450203  RH  077%=      5-min Rain = 0
KMC1 240510Z 14013G21KT 25/20 A2994 RMK A01 T02450203  RH  077%=      5-min Rain = 0
KMC1 240511Z 14009G14KT 25/20 A2994 RMK A01 T02450203  RH  077%=      5-min Rain = 0
KMC1 240512Z 14011KT 25/20 A2994 RMK A01 T02460203  RH  077%=      5-min Rain = 0
KMC1 240513Z 14010KT 25/20 A2994 RMK A01 T02460203  RH  077%=      5-min Rain = 0
KMC1 240514Z 14009KT 25/20 A2994 RMK A01 T02460203  RH  077%=      5-min Rain = 0
KMC1 240515Z 14012G18KT 25/20 A2994 RMK A01 T02460203  RH  077%=      5-min Rain = 0
KMC1 240516Z 14012KT 25/20 A2994 RMK A01 T02460203  RH  077%=      5-min Rain = 0
KMC1 240517Z 13011KT 25/20 A2994 RMK A01 T02460203  RH  077%=      5-min Rain = 0
KMC1 240518Z 15010G15KT 25/20 A2994 RMK A01 T02460203  RH  077%=      5-min Rain = 0
KMC1 240519Z 14009KT 25/20 A2994 RMK A01 T02460204  RH  077%=      5-min Rain = 0
KMC1 240520Z 13012G17KT 25/20 A2994 RMK A01 T02460204  RH  078%=      5-min Rain = 0
KMC1 240521Z 14010KT 25/20 A2994 RMK A01 T02460204  RH  077%=      5-min Rain = 0
KMC1 240522Z 15009KT 25/20 A2994 RMK A01 T02450204  RH  078%=      5-min Rain = 0
KMC1 240523Z 13009G15KT 25/20 A2994 RMK A01 T02450204  RH  078%=      5-min Rain = 0
KMC1 240524Z 14010G15KT 25/20 A2994 RMK A01 T02450204  RH  078%=      5-min Rain = 0
KMC1 240525Z 13011G19KT 24/20 A2994 RMK A01 T02440204  RH  078%=      5-min Rain = 0
KMC1 240526Z 14012G17KT 24/20 A2994 RMK A01 T02440204  RH  078%=      5-min Rain = 0
KMC1 240527Z 14013KT 24/20 A2994 RMK A01 T02440204  RH  078%=      5-min Rain = 0
KMC1 240528Z 14013G18KT 24/20 A2994 RMK A01 T02440204  RH  078%=      5-min Rain = 0
KMC1 240529Z 13013G20KT 24/20 A2993 RMK A01 T02440204  RH  078%=      5-min Rain = 0
KMC1 240530Z 13008KT 24/20 A2994 RMK A01 T02440204  RH  078%=      5-min Rain = 0
KMC1 240531Z 14008G13KT 24/20 A2994 RMK A01 T02440204  RH  078%=      5-min Rain = 0
KMC1 240532Z 14009KT 24/20 A2994 RMK A01 T02440204  RH  079%=      5-min Rain = 0
KMC1 240533Z 14007G12KT 24/20 A2994 RMK A01 T02430204  RH  079%=      5-min Rain = 0
KMC1 240534Z 14009KT 24/20 A2994 RMK A01 T02430204  RH  079%=      5-min Rain = 0
KMC1 240535Z 14008KT 24/20 A2994 RMK A01 T02420204  RH  079%=      5-min Rain = 0
KMC1 240536Z 14009KT 24/20 A2994 RMK A01 T02420204  RH  079%=      5-min Rain = 0
KMC1 240537Z 14011G16KT 24/20 A2993 RMK A01 T02420204  RH  079%=      5-min Rain = 0
KMC1 240538Z 14014KT 24/20 A2993 RMK A01 T02420204  RH  079%=      5-min Rain = 0
KMC1 240539Z 14011G18KT 24/20 A2993 RMK A01 T02430204  RH  079%=      5-min Rain = 0
KMC1 240540Z 15011KT 24/20 A2994 RMK A01 T02430204  RH  079%=      5-min Rain = 0
KMC1 240541Z 14010G15KT 24/20 A2993 RMK A01 T02430204  RH  079%=      5-min Rain = 0
KMC1 240542Z 14010G15KT 24/21 A2994 RMK A01 T02430205  RH  079%=      5-min Rain = 0
KMC1 240543Z 15010KT 24/21 A2994 RMK A01 T02430205  RH  079%=      5-min Rain = 0
KMC1 240544Z 14008G13KT 24/20 A2994 RMK A01 T02420204  RH  079%=      5-min Rain = 0
KMC1 240545Z 13010G15KT 24/21 A2994 RMK A01 T02420205  RH  079%=      5-min Rain = 0
KMC1 240546Z 14013KT 24/20 A2994 RMK A01 T02420204  RH  079%=      5-min Rain = 0
KMC1 240547Z 15009KT 24/20 A2994 RMK A01 T02420204  RH  079%=      5-min Rain = 0
KMC1 240548Z 15013KT 24/20 A2994 RMK A01 T02420204  RH  079%=      5-min Rain = 0
KMC1 240549Z 13008KT 24/20 A2994 RMK A01 T02430204  RH  079%=      5-min Rain = 0
KMC1 240550Z 14009G14KT 24/20 A2994 RMK A01 T02430204  RH  079%=      5-min Rain = 0
KMC1 240551Z 14009G16KT 24/20 A2994 RMK A01 T02420204  RH  079%=      5-min Rain = 0
KMC1 240552Z 14010G16KT 24/21 A2994 RMK A01 T02420205  RH  079%=      5-min Rain = 0
KMC1 240553Z 13011KT 24/20 A2994 RMK A01 T02420204  RH  079%=      5-min Rain = 0
KMC1 240554Z 15008G16KT 24/20 A2994 RMK A01 T02420204  RH  079%=      5-min Rain = 0
KMC1 240555Z 14009G14KT 24/21 A2994 RMK A01 T02430205  RH  079%=      5-min Rain = 0
KMC1 240556Z 14009G14KT 24/20 A2994 RMK A01 T02420204  RH  079%=      5-min Rain = 0
KMC1 240557Z 14010G15KT 24/20 A2994 RMK A01 T02420204  RH  079%=      5-min Rain = 0
KMC1 240558Z 14012G18KT 24/20 A2993 RMK A01 T02420204  RH  079%=      5-min Rain = 0
KMC1 240559Z 15010G15KT 24/20 A2993 RMK A01 T02430204  RH  079%=      5-min Rain = 0
KMC1 240600Z 14013G19KT 24/20 A2993 RMK A01 T02430204  RH  079%=      5-min Rain = 0
KMC1 240601Z 13011KT 24/20 A2993 RMK A01 T02430204  RH  079%=      5-min Rain = 0
KMC1 240602Z 14015G25KT 24/21 A2993 RMK A01 T02440205  RH  079%=      5-min Rain = 0
KMC1 240603Z 14015KT 24/21 A2993 RMK A01 T02430205  RH  079%=      5-min Rain = 0
KMC1 240604Z 14012KT 24/21 A2993 RMK A01 T02430205  RH  079%=      5-min Rain = 0
KMC1 240605Z 13010KT 24/20 A2993 RMK A01 T02430204  RH  079%=      5-min Rain = 0
KMC1 240606Z 14008KT 24/21 A2993 RMK A01 T02430205  RH  079%=      5-min Rain = 0
KMC1 240607Z 14014G24KT 24/21 A2993 RMK A01 T02430205  RH  079%=      5-min Rain = 0
KMC1 240608Z 15013G19KT 24/20 A2993 RMK A01 T02430204  RH  079%=      5-min Rain = 0
KMC1 240609Z 14009G14KT 24/21 A2993 RMK A01 T02430205  RH  079%=      5-min Rain = 0
KMC1 240610Z 13009KT 24/20 A2994 RMK A01 T02430204  RH  079%=      5-min Rain = 0
KMC1 240611Z 14014KT 24/20 A2994 RMK A01 T02430204  RH  079%=      5-min Rain = 0
KMC1 240612Z 15009G15KT 24/20 A2993 RMK A01 T02420204  RH  079%=      5-min Rain = 0
KMC1 240613Z 14012G18KT 24/20 A2994 RMK A01 T02420204  RH  079%=      5-min Rain = 0
KMC1 240614Z 14012G17KT 24/20 A2994 RMK A01 T02420204  RH  079%=      5-min Rain = 0
KMC1 240615Z 14013G19KT 24/20 A2994 RMK A01 T02420204  RH  079%=      5-min Rain = 0
KMC1 240616Z 14014KT 24/20 A2994 RMK A01 T02420204  RH  079%=      5-min Rain = 0
KMC1 240617Z 15008KT 24/20 A2994 RMK A01 T02420203  RH  079%=      5-min Rain = 0
KMC1 240618Z 15010KT 24/20 A2994 RMK A01 T02420204  RH  079%=      5-min Rain = 0
KMC1 240619Z 15009KT 24/20 A2994 RMK A01 T02420204  RH  079%=      5-min Rain = 0
KMC1 240620Z 14014G19KT 24/20 A2994 RMK A01 T02420204  RH  079%=      5-min Rain = 0
KMC1 240621Z 15013G19KT 24/20 A2994 RMK A01 T02410203  RH  079%=      5-min Rain = 0
KMC1 240622Z 14009KT 24/20 A2994 RMK A01 T02420204  RH  079%=      5-min Rain = 0
KMC1 240623Z 14008G15KT 24/20 A2993 RMK A01 T02420204  RH  079%=      5-min Rain = 0
KMC1 240624Z 14007KT 24/20 A2993 RMK A01 T02420204  RH  079%=      5-min Rain = 0
KMC1 240625Z 14008KT 24/20 A2993 RMK A01 T02410204  RH  079%=      5-min Rain = 0
KMC1 240626Z 14008G13KT 24/20 A2993 RMK A01 T02410204  RH  080%=      5-min Rain = 0
KMC1 240627Z 13011G17KT 24/20 A2993 RMK A01 T02410204  RH  080%=      5-min Rain = 0
KMC1 240628Z 14010G16KT 24/20 A2993 RMK A01 T02410204  RH  080%=      5-min Rain = 0
KMC1 240629Z 14008KT 24/20 A2993 RMK A01 T02400204  RH  080%=      5-min Rain = 0
KMC1 240630Z 14009KT 24/20 A2993 RMK A01 T02400204  RH  080%=      5-min Rain = 0
KMC1 240631Z 14010G17KT 24/20 A2993 RMK A01 T02400204  RH  080%=      5-min Rain = 0
KMC1 240632Z 14008G15KT 24/20 A2993 RMK A01 T02400204  RH  080%=      5-min Rain = 0
KMC1 240633Z 14012KT 24/20 A2993 RMK A01 T02400204  RH  080%=      5-min Rain = 0
KMC1 240634Z 15010G15KT 24/20 A2993 RMK A01 T02400204  RH  080%=      5-min Rain = 0
KMC1 240635Z 15012G17KT 24/20 A2993 RMK A01 T02400204  RH  080%=      5-min Rain = 0
KMC1 240636Z 14010G16KT 24/20 A2993 RMK A01 T02400203  RH  080%=      5-min Rain = 0
KMC1 240637Z 13008KT 24/20 A2993 RMK A01 T02400203  RH  080%=      5-min Rain = 0
KMC1 240638Z 13010KT 24/20 A2993 RMK A01 T02400203  RH  080%=      5-min Rain = 0
KMC1 240639Z 14009KT 24/20 A2993 RMK A01 T02400203  RH  080%=      5-min Rain = 0
KMC1 240640Z 14010KT 24/20 A2993 RMK A01 T02400203  RH  080%=      5-min Rain = 0
KMC1 240641Z 14011G16KT 24/20 A2993 RMK A01 T02400203  RH  080%=      5-min Rain = 0
KMC1 240642Z 14012G18KT 24/20 A2993 RMK A01 T02400203  RH  080%=      5-min Rain = 0
KMC1 240643Z 14010KT 24/20 A2993 RMK A01 T02400203  RH  080%=      5-min Rain = 0
KMC1 240644Z 14010G15KT 24/20 A2993 RMK A01 T02400203  RH  080%=      5-min Rain = 0
KMC1 240645Z 14012KT 24/20 A2993 RMK A01 T02400203  RH  080%=      5-min Rain = 0
KMC1 240646Z 13010KT 24/20 A2993 RMK A01 T02400203  RH  080%=      5-min Rain = 0
KMC1 240647Z 13010KT 24/20 A2993 RMK A01 T02400203  RH  080%=      5-min Rain = 0
KMC1 240648Z 14008G14KT 24/20 A2993 RMK A01 T02400203  RH  080%=      5-min Rain = 0
KMC1 240649Z 14009KT 24/20 A2993 RMK A01 T02400203  RH  080%=      5-min Rain = 0
KMC1 240650Z 14008G13KT 24/20 A2993 RMK A01 T02400203  RH  080%=      5-min Rain = 0
KMC1 240651Z 14007KT 24/20 A2993 RMK A01 T02390203  RH  080%=      5-min Rain = 0
KMC1 240652Z 14006KT 24/20 A2993 RMK A01 T02390203  RH  080%=      5-min Rain = 0
KMC1 240653Z 14008KT 24/20 A2993 RMK A01 T02390204  RH  081%=      5-min Rain = 0
KMC1 240654Z 14008G13KT 24/20 A2993 RMK A01 T02380203  RH  081%=      5-min Rain = 0
KMC1 240655Z 14008KT 24/20 A2993 RMK A01 T02390203  RH  081%=      5-min Rain = 0
KMC1 240656Z 14007KT 24/20 A2992 RMK A01 T02390203  RH  081%=      5-min Rain = 0
KMC1 240657Z 14008KT 24/20 A2993 RMK A01 T02390203  RH  081%=      5-min Rain = 0
KMC1 240658Z 13009G14KT 24/20 A2992 RMK A01 T02390204  RH  081%=      5-min Rain = 0
KMC1 240659Z 14008KT 24/20 A2992 RMK A01 T02380204  RH  081%=      5-min Rain = 0
KMC1 240700Z 14008KT 24/20 A2992 RMK A01 T02380204  RH  081%=      5-min Rain = 0
KMC1 240701Z 14007KT 24/20 A2993 RMK A01 T02380203  RH  081%=      5-min Rain = 0
KMC1 240702Z 14010KT 24/20 A2992 RMK A01 T02380204  RH  081%=      5-min Rain = 0
KMC1 240703Z 14008G14KT 24/20 A2992 RMK A01 T02390204  RH  081%=      5-min Rain = 0
KMC1 240704Z 13008KT 24/20 A2992 RMK A01 T02380203  RH  081%=      5-min Rain = 0
KMC1 240705Z 14011G18KT 24/20 A2992 RMK A01 T02380203  RH  081%=      5-min Rain = 0
KMC1 240706Z 14010G15KT 24/20 A2992 RMK A01 T02380202  RH  080%=      5-min Rain = 0
KMC1 240707Z 14009KT 24/20 A2992 RMK A01 T02390202  RH  080%=      5-min Rain = 0
KMC1 240708Z 15008KT 24/20 A2992 RMK A01 T02390201  RH  079%=      5-min Rain = 0
KMC1 240709Z 14008KT 24/20 A2992 RMK A01 T02390201  RH  079%=      5-min Rain = 0
KMC1 240710Z 14008G13KT 24/20 A2992 RMK A01 T02390202  RH  079%=      5-min Rain = 0
KMC1 240711Z 13007KT 24/20 A2992 RMK A01 T02390201  RH  079%=      5-min Rain = 0
KMC1 240712Z 15007G14KT 24/20 A2992 RMK A01 T02390201  RH  079%=      5-min Rain = 0
KMC1 240713Z 14010G16KT 24/20 A2992 RMK A01 T02390201  RH  079%=      5-min Rain = 0
KMC1 240714Z 14011G16KT 24/20 A2992 RMK A01 T02390200  RH  079%=      5-min Rain = 0
KMC1 240715Z 14012KT 24/20 A2992 RMK A01 T02390200  RH  079%=      5-min Rain = 0
KMC1 240716Z 14008KT 24/20 A2992 RMK A01 T02390200  RH  079%=      5-min Rain = 0
KMC1 240717Z 13009KT 24/20 A2992 RMK A01 T02390201  RH  079%=      5-min Rain = 0
KMC1 240718Z 15012G18KT 24/20 A2992 RMK A01 T02390200  RH  079%=      5-min Rain = 0
KMC1 240719Z 15012G17KT 24/20 A2992 RMK A01 T02390200  RH  079%=      5-min Rain = 0
KMC1 240720Z 13008KT 24/20 A2992 RMK A01 T02390199  RH  079%=      5-min Rain = 0
KMC1 240721Z 14012G17KT 24/20 A2992 RMK A01 T02390199  RH  079%=      5-min Rain = 0
KMC1 240722Z 15014KT 24/20 A2992 RMK A01 T02390199  RH  078%=      5-min Rain = 0
KMC1 240723Z 14010G16KT 24/20 A2992 RMK A01 T02390199  RH  078%=      5-min Rain = 0
KMC1 240724Z 14010G16KT 24/20 A2992 RMK A01 T02390199  RH  078%=      5-min Rain = 0
KMC1 240725Z 14014KT 24/20 A2991 RMK A01 T02390198  RH  078%=      5-min Rain = 0
KMC1 240726Z 15014G19KT 24/20 A2991 RMK A01 T02390198  RH  078%=      5-min Rain = 0
KMC1 240727Z 15013KT 24/20 A2991 RMK A01 T02390198  RH  078%=      5-min Rain = 0
KMC1 240728Z 15011G17KT 24/20 A2992 RMK A01 T02390198  RH  078%=      5-min Rain = 0
KMC1 240729Z 13011G17KT 24/20 A2991 RMK A01 T02390198  RH  078%=      5-min Rain = 0
KMC1 240730Z 14013KT 24/20 A2991 RMK A01 T02390199  RH  078%=      5-min Rain = 0
KMC1 240731Z 15010G18KT 24/20 A2992 RMK A01 T02390199  RH  078%=      5-min Rain = 0
KMC1 240732Z 15010G15KT 24/20 A2992 RMK A01 T02390199  RH  078%=      5-min Rain = 0
KMC1 240733Z 14009G14KT 24/20 A2992 RMK A01 T02390199  RH  078%=      5-min Rain = 0
KMC1 240734Z 14010KT 24/20 A2992 RMK A01 T02390199  RH  078%=      5-min Rain = 0
KMC1 240735Z 14006G11KT 24/20 A2992 RMK A01 T02380199  RH  079%=      5-min Rain = 0
KMC1 240736Z 15008G13KT 24/20 A2992 RMK A01 T02370199  RH  079%=      5-min Rain = 0
KMC1 240737Z 14008KT 24/20 A2992 RMK A01 T02380199  RH  079%=      5-min Rain = 0
KMC1 240738Z 14014G19KT 24/20 A2992 RMK A01 T02370198  RH  079%=      5-min Rain = 0
KMC1 240739Z 14012KT 24/20 A2992 RMK A01 T02380198  RH  079%=      5-min Rain = 0
KMC1 240740Z 15014G19KT 24/20 A2992 RMK A01 T02380198  RH  078%=      5-min Rain = 0
KMC1 240741Z 14012G18KT 24/20 A2992 RMK A01 T02380198  RH  078%=      5-min Rain = 0
KMC1 240742Z 14010G16KT 24/20 A2992 RMK A01 T02380199  RH  078%=      5-min Rain = 0
KMC1 240743Z 14014G20KT 24/20 A2992 RMK A01 T02380198  RH  078%=      5-min Rain = 0
KMC1 240744Z 15010KT 24/20 A2992 RMK A01 T02380198  RH  078%=      5-min Rain = 0
KMC1 240745Z 13012KT 24/20 A2992 RMK A01 T02380198  RH  078%=      5-min Rain = 0
KMC1 240746Z 14014KT 24/20 A2992 RMK A01 T02390199  RH  078%=      5-min Rain = 0
KMC1 240747Z 15012G17KT 24/20 A2992 RMK A01 T02390198  RH  078%=      5-min Rain = 0
KMC1 240748Z 15010G16KT 24/20 A2992 RMK A01 T02390199  RH  078%=      5-min Rain = 0
KMC1 240749Z 15010KT 24/20 A2992 RMK A01 T02390199  RH  078%=      5-min Rain = 0
KMC1 240750Z 15016G23KT 24/20 A2992 RMK A01 T02390199  RH  079%=      5-min Rain = 0
KMC1 240751Z 15012G20KT 24/20 A2992 RMK A01 T02390199  RH  078%=      5-min Rain = 0
KMC1 240752Z 14012G21KT 24/20 A2992 RMK A01 T02390199  RH  078%=      5-min Rain = 0
KMC1 240753Z 14010KT 24/20 A2992 RMK A01 T02390199  RH  078%=      5-min Rain = 0
KMC1 240754Z 16008G13KT 24/20 A2992 RMK A01 T02390199  RH  079%=      5-min Rain = 0
KMC1 240755Z 15012G20KT 24/20 A2992 RMK A01 T02380199  RH  079%=      5-min Rain = 0
KMC1 240756Z 14008G16KT 24/20 A2992 RMK A01 T02380199  RH  079%=      5-min Rain = 0
KMC1 240757Z 15011G17KT 24/20 A2992 RMK A01 T02370199  RH  079%=      5-min Rain = 0
KMC1 240758Z 14010G16KT 24/20 A2992 RMK A01 T02370199  RH  079%=      5-min Rain = 0
KMC1 240759Z 15010G16KT 24/20 A2992 RMK A01 T02380199  RH  079%=      5-min Rain = 0
KMC1 240800Z 13012G18KT 24/20 A2992 RMK A01 T02370199  RH  079%=      5-min Rain = 0
KMC1 240801Z 14015G21KT 24/20 A2992 RMK A01 T02370198  RH  079%=      5-min Rain = 0
KMC1 240802Z 15008G13KT 24/20 A2992 RMK A01 T02370198  RH  079%=      5-min Rain = 0
KMC1 240803Z 14010KT 24/20 A2992 RMK A01 T02370198  RH  079%=      5-min Rain = 0
KMC1 240804Z 15010KT 24/20 A2992 RMK A01 T02360198  RH  079%=      5-min Rain = 0
KMC1 240805Z 15009KT 24/20 A2992 RMK A01 T02360198  RH  079%=      5-min Rain = 0
KMC1 240811Z 15016G23KT 24/20 A2992 RMK A01 T02370198  RH  079%=      5-min Rain = 0
KMC1 240812Z 15010G15KT 24/20 A2992 RMK A01 T02370197  RH  079%=      5-min Rain = 0
KMC1 240813Z 15010G18KT 24/20 A2992 RMK A01 T02360197  RH  079%=      5-min Rain = 0
KMC1 240814Z 16017KT 24/20 A2992 RMK A01 T02370197  RH  079%=      5-min Rain = 0
KMC1 240815Z 15013G19KT 24/20 A2992 RMK A01 T02370197  RH  078%=      5-min Rain = 0
KMC1 240816Z 16013KT 24/20 A2992 RMK A01 T02380197  RH  078%=      5-min Rain = 0
KMC1 240817Z 15011G16KT 24/20 A2992 RMK A01 T02380197  RH  078%=      5-min Rain = 0
KMC1 240818Z 15013G19KT 24/20 A2992 RMK A01 T02370197  RH  078%=      5-min Rain = 0
KMC1 240819Z 15011G19KT 24/20 A2992 RMK A01 T02370198  RH  078%=      5-min Rain = 0
KMC1 240820Z 14012KT 24/20 A2992 RMK A01 T02370198  RH  078%=      5-min Rain = 0
KMC1 240821Z 15011G17KT 24/20 A2992 RMK A01 T02370197  RH  078%=      5-min Rain = 0
KMC1 240822Z 15013G19KT 24/20 A2992 RMK A01 T02370198  RH  078%=      5-min Rain = 0
KMC1 240823Z 15010KT 24/20 A2992 RMK A01 T02370198  RH  078%=      5-min Rain = 0
KMC1 240824Z 16008G14KT 24/20 A2992 RMK A01 T02370197  RH  078%=      5-min Rain = 0
KMC1 240825Z 15008KT 24/20 A2992 RMK A01 T02370198  RH  079%=      5-min Rain = 0
KMC1 240826Z 16007KT 24/20 A2992 RMK A01 T02360198  RH  079%=      5-min Rain = 0
KMC1 240827Z 15011G16KT 24/20 A2992 RMK A01 T02360198  RH  079%=      5-min Rain = 0
KMC1 240828Z 15013KT 24/20 A2992 RMK A01 T02360197  RH  079%=      5-min Rain = 0
KMC1 240829Z 16015G22KT 24/20 A2992 RMK A01 T02360197  RH  079%=      5-min Rain = 0
KMC1 240830Z 15007KT 24/20 A2992 RMK A01 T02370197  RH  078%=      5-min Rain = 0
KMC1 240831Z 15009KT 24/20 A2992 RMK A01 T02370197  RH  078%=      5-min Rain = 0
KMC1 240832Z 15007KT 24/20 A2992 RMK A01 T02370198  RH  079%=      5-min Rain = 0
KMC1 240833Z 16007KT 24/20 A2992 RMK A01 T02370198  RH  079%=      5-min Rain = 0
KMC1 240834Z 16013G18KT 24/20 A2992 RMK A01 T02370198  RH  079%=      5-min Rain = 0
KMC1 240835Z 15011KT 24/20 A2992 RMK A01 T02370198  RH  079%=      5-min Rain = 0
KMC1 240836Z 15012KT 24/20 A2992 RMK A01 T02370197  RH  078%=      5-min Rain = 0
KMC1 240837Z 15007G12KT 24/20 A2992 RMK A01 T02370197  RH  078%=      5-min Rain = 0
KMC1 240838Z 15009G14KT 24/20 A2992 RMK A01 T02380198  RH  078%=      5-min Rain = 0
KMC1 240839Z 15009KT 24/20 A2992 RMK A01 T02370198  RH  078%=      5-min Rain = 0
KMC1 240840Z 15010KT 24/20 A2992 RMK A01 T02380198  RH  079%=      5-min Rain = 0
KMC1 240841Z 16011G17KT 24/20 A2992 RMK A01 T02380198  RH  078%=      5-min Rain = 0
KMC1 240842Z 15009KT 24/20 A2993 RMK A01 T02370198  RH  078%=      5-min Rain = 0
KMC1 240843Z 15010KT 24/20 A2992 RMK A01 T02370197  RH  078%=      5-min Rain = 0
KMC1 240844Z 16007KT 24/20 A2992 RMK A01 T02370198  RH  078%=      5-min Rain = 0
KMC1 240845Z 16012G18KT 24/20 A2993 RMK A01 T02370198  RH  078%=      5-min Rain = 0
KMC1 240846Z 17009G14KT 24/20 A2993 RMK A01 T02370198  RH  079%=      5-min Rain = 0
KMC1 240847Z 16009G14KT 24/20 A2993 RMK A01 T02370197  RH  078%=      5-min Rain = 0
KMC1 240848Z 16011G18KT 24/20 A2993 RMK A01 T02370198  RH  078%=      5-min Rain = 0
KMC1 240849Z 15011G17KT 24/20 A2993 RMK A01 T02370198  RH  078%=      5-min Rain = 0
KMC1 240850Z 15009G16KT 24/20 A2993 RMK A01 T02380198  RH  078%=      5-min Rain = 0
KMC1 240851Z 16014KT 24/20 A2993 RMK A01 T02380198  RH  078%=      5-min Rain = 0
KMC1 240852Z 15010KT 24/20 A2993 RMK A01 T02380197  RH  078%=      5-min Rain = 0
KMC1 240853Z 16007KT 24/20 A2993 RMK A01 T02380198  RH  078%=      5-min Rain = 0
KMC1 240854Z 16011KT 24/20 A2993 RMK A01 T02380198  RH  078%=      5-min Rain = 0
KMC1 240855Z 16009KT 24/20 A2993 RMK A01 T02380198  RH  078%=      5-min Rain = 0
KMC1 240856Z 15010G15KT 24/20 A2993 RMK A01 T02380198  RH  078%=      5-min Rain = 0
KMC1 240857Z 15007KT 24/20 A2993 RMK A01 T02380198  RH  078%=      5-min Rain = 0
KMC1 240858Z 15009G15KT 24/20 A2993 RMK A01 T02370198  RH  078%=      5-min Rain = 0
KMC1 240859Z 15009KT 24/20 A2993 RMK A01 T02370198  RH  078%=      5-min Rain = 0
KMC1 240900Z 16009KT 24/20 A2993 RMK A01 T02370198  RH  078%=      5-min Rain = 0
KMC1 240901Z 15009KT 24/20 A2993 RMK A01 T02370197  RH  078%=      5-min Rain = 0
KMC1 240902Z 16007KT 24/20 A2993 RMK A01 T02370197  RH  078%=      5-min Rain = 0
KMC1 240903Z 16008G14KT 24/20 A2993 RMK A01 T02380197  RH  078%=      5-min Rain = 0
KMC1 240904Z 16010G15KT 24/20 A2993 RMK A01 T02380197  RH  078%=      5-min Rain = 0
KMC1 240905Z 16010G17KT 24/20 A2993 RMK A01 T02370196  RH  078%=      5-min Rain = 0
KMC1 240906Z 16009G14KT 24/20 A2993 RMK A01 T02380197  RH  078%=      5-min Rain = 0
KMC1 240907Z 16008KT 24/20 A2993 RMK A01 T02380197  RH  078%=      5-min Rain = 0
KMC1 240908Z 16007KT 24/20 A2993 RMK A01 T02380196  RH  077%=      5-min Rain = 0
KMC1 240909Z 16005KT 24/20 A2993 RMK A01 T02380197  RH  078%=      5-min Rain = 0
KMC1 240910Z 15008KT 24/20 A2993 RMK A01 T02380197  RH  078%=      5-min Rain = 0
KMC1 240911Z 15011G17KT 24/20 A2993 RMK A01 T02380196  RH  078%=      5-min Rain = 0
KMC1 240912Z 16011KT 24/20 A2993 RMK A01 T02380196  RH  077%=      5-min Rain = 0
KMC1 240913Z 16013KT 24/20 A2993 RMK A01 T02380196  RH  077%=      5-min Rain = 0
KMC1 240914Z 14011G17KT 24/20 A2993 RMK A01 T02390196  RH  077%=      5-min Rain = 0
KMC1 240915Z 16011G17KT 24/20 A2993 RMK A01 T02390196  RH  077%=      5-min Rain = 0
KMC1 240916Z 15011G16KT 24/20 A2993 RMK A01 T02390196  RH  076%=      5-min Rain = 0
KMC1 240917Z 15012KT 24/20 A2993 RMK A01 T02390195  RH  076%=      5-min Rain = 0
KMC1 240918Z 16009KT 24/20 A2993 RMK A01 T02390195  RH  076%=      5-min Rain = 0
KMC1 240919Z 17011G17KT 24/20 A2993 RMK A01 T02400195  RH  076%=      5-min Rain = 0
KMC1 240920Z 17009KT 24/20 A2993 RMK A01 T02400196  RH  076%=      5-min Rain = 0
KMC1 240921Z 15009G14KT 24/20 A2993 RMK A01 T02400196  RH  077%=      5-min Rain = 0
KMC1 240922Z 16011KT 24/20 A2993 RMK A01 T02400196  RH  076%=      5-min Rain = 0
KMC1 240923Z 15007KT 24/20 A2993 RMK A01 T02390196  RH  076%=      5-min Rain = 0
KMC1 240924Z 15010G18KT 24/20 A2993 RMK A01 T02390196  RH  077%=      5-min Rain = 0
KMC1 240925Z 15013G18KT 24/20 A2993 RMK A01 T02390195  RH  077%=      5-min Rain = 0
KMC1 240926Z 16011G16KT 24/20 A2993 RMK A01 T02390195  RH  076%=      5-min Rain = 0
KMC1 240927Z 16011G16KT 24/20 A2993 RMK A01 T02400195  RH  076%=      5-min Rain = 0
KMC1 240928Z 16013G21KT 24/20 A2993 RMK A01 T02400195  RH  076%=      5-min Rain = 0
KMC1 240929Z 16012G20KT 24/20 A2993 RMK A01 T02400195  RH  076%=      5-min Rain = 0
KMC1 240930Z 15010G17KT 24/20 A2993 RMK A01 T02410195  RH  076%=      5-min Rain = 0
KMC1 240931Z 15012G17KT 24/20 A2993 RMK A01 T02410195  RH  076%=      5-min Rain = 0
KMC1 240932Z 16010G17KT 24/20 A2993 RMK A01 T02410195  RH  076%=      5-min Rain = 0
KMC1 240933Z 14010G16KT 24/20 A2993 RMK A01 T02410196  RH  076%=      5-min Rain = 0
KMC1 240934Z 14010G15KT 24/20 A2993 RMK A01 T02400195  RH  076%=      5-min Rain = 0
KMC1 240935Z 15010G16KT 24/20 A2993 RMK A01 T02410196  RH  076%=      5-min Rain = 0
KMC1 240936Z 15015G21KT 24/20 A2993 RMK A01 T02410196  RH  076%=      5-min Rain = 0
KMC1 240937Z 15008G13KT 24/20 A2993 RMK A01 T02410195  RH  076%=      5-min Rain = 0
KMC1 240938Z 15012KT 24/20 A2993 RMK A01 T02410196  RH  076%=      5-min Rain = 0
KMC1 240939Z 16009G15KT 24/20 A2993 RMK A01 T02410196  RH  076%=      5-min Rain = 0
KMC1 240940Z 16009G18KT 24/20 A2993 RMK A01 T02410197  RH  076%=      5-min Rain = 0
KMC1 240941Z 15011G17KT 24/20 A2993 RMK A01 T02410196  RH  076%=      5-min Rain = 0
KMC1 240942Z 15010KT 24/20 A2993 RMK A01 T02410196  RH  076%=      5-min Rain = 0
KMC1 240943Z 16008G13KT 24/20 A2993 RMK A01 T02410196  RH  076%=      5-min Rain = 0
KMC1 240944Z 16009G14KT 24/20 A2993 RMK A01 T02410196  RH  076%=      5-min Rain = 0
KMC1 240945Z 15013G19KT 24/20 A2993 RMK A01 T02410196  RH  076%=      5-min Rain = 0
KMC1 240946Z 15007KT 24/20 A2994 RMK A01 T02410196  RH  076%=      5-min Rain = 0
KMC1 240947Z 15010KT 24/20 A2993 RMK A01 T02410196  RH  076%=      5-min Rain = 0
KMC1 240948Z 16010G16KT 24/20 A2993 RMK A01 T02410196  RH  076%=      5-min Rain = 0
KMC1 240949Z 16011G16KT 24/20 A2993 RMK A01 T02400196  RH  076%=      5-min Rain = 0
KMC1 240950Z 17014G21KT 24/20 A2993 RMK A01 T02400195  RH  076%=      5-min Rain = 0
KMC1 240951Z 15010G17KT 24/20 A2993 RMK A01 T02410195  RH  076%=      5-min Rain = 0
KMC1 240952Z 15011G16KT 24/20 A2993 RMK A01 T02410196  RH  076%=      5-min Rain = 0
KMC1 240953Z 17016G26KT 24/20 A2993 RMK A01 T02410195  RH  076%=      5-min Rain = 0
KMC1 240954Z 16013G18KT 24/20 A2993 RMK A01 T02410195  RH  075%=      5-min Rain = 0
KMC1 240955Z 17010KT 24/20 A2994 RMK A01 T02420195  RH  075%=      5-min Rain = 0
KMC1 240956Z 15007G14KT 24/20 A2993 RMK A01 T02410195  RH  075%=      5-min Rain = 0
KMC1 240957Z 15008G13KT 24/20 A2993 RMK A01 T02410196  RH  076%=      5-min Rain = 0
KMC1 240958Z 16013G19KT 24/20 A2993 RMK A01 T02410196  RH  076%=      5-min Rain = 0
KMC1 240959Z 15011KT 24/20 A2993 RMK A01 T02410195  RH  076%=      5-min Rain = 0
KMC1 241000Z 15012KT 24/20 A2993 RMK A01 T02400195  RH  076%=      5-min Rain = 0
KMC1 241001Z 15010KT 24/20 A2993 RMK A01 T02400195  RH  076%=      5-min Rain = 0
KMC1 241002Z 14017G24KT 24/20 A2993 RMK A01 T02400195  RH  076%=      5-min Rain = 0
KMC1 241003Z 14010KT 24/20 A2993 RMK A01 T02400195  RH  076%=      5-min Rain = 0
KMC1 241004Z 15008G13KT 24/20 A2993 RMK A01 T02400195  RH  076%=      5-min Rain = 0
KMC1 241005Z 15012KT 24/20 A2993 RMK A01 T02390195  RH  076%=      5-min Rain = 0
KMC1 241006Z 15012KT 24/20 A2993 RMK A01 T02390195  RH  076%=      5-min Rain = 0
KMC1 241007Z 14011G16KT 24/20 A2993 RMK A01 T02390195  RH  076%=      5-min Rain = 0
KMC1 241008Z 15012G20KT 24/20 A2993 RMK A01 T02390195  RH  076%=      5-min Rain = 0
KMC1 241009Z 15013G18KT 24/20 A2993 RMK A01 T02390195  RH  076%=      5-min Rain = 0
KMC1 241010Z 15012KT 24/19 A2993 RMK A01 T02390194  RH  076%=      5-min Rain = 0
KMC1 241011Z 15016G21KT 24/20 A2993 RMK A01 T02390195  RH  076%=      5-min Rain = 0
KMC1 241012Z 15013KT 24/20 A2993 RMK A01 T02390195  RH  076%=      5-min Rain = 0
KMC1 241013Z 15014G21KT 24/20 A2993 RMK A01 T02390195  RH  076%=      5-min Rain = 0
KMC1 241014Z 16011G17KT 24/20 A2993 RMK A01 T02390195  RH  076%=      5-min Rain = 0
KMC1 241015Z 15012G17KT 24/20 A2993 RMK A01 T02390195  RH  076%=      5-min Rain = 0
KMC1 241016Z 15015KT 24/20 A2993 RMK A01 T02390195  RH  076%=      5-min Rain = 0
KMC1 241017Z 15012G19KT 24/20 A2993 RMK A01 T02390195  RH  077%=      5-min Rain = 0
KMC1 241018Z 16013KT 24/20 A2993 RMK A01 T02390195  RH  077%=      5-min Rain = 0
KMC1 241019Z 15011G17KT 24/20 A2993 RMK A01 T02390195  RH  077%=      5-min Rain = 0
KMC1 241020Z 15010G17KT 24/20 A2993 RMK A01 T02380195  RH  077%=      5-min Rain = 0
KMC1 241021Z 15011KT 24/20 A2993 RMK A01 T02380195  RH  077%=      5-min Rain = 0
KMC1 241022Z 15010G16KT 24/20 A2993 RMK A01 T02380195  RH  077%=      5-min Rain = 0
KMC1 241023Z 14012KT 24/20 A2993 RMK A01 T02380195  RH  077%=      5-min Rain = 0
KMC1 241024Z 15010G16KT 24/20 A2993 RMK A01 T02380195  RH  077%=      5-min Rain = 0
KMC1 241025Z 14010G15KT 24/20 A2993 RMK A01 T02380195  RH  077%=      5-min Rain = 0
KMC1 241026Z 14010G17KT 24/20 A2993 RMK A01 T02380195  RH  077%=      5-min Rain = 0
KMC1 241027Z 14012G19KT 24/20 A2993 RMK A01 T02370195  RH  077%=      5-min Rain = 0
KMC1 241028Z 14012G17KT 24/20 A2993 RMK A01 T02370195  RH  077%=      5-min Rain = 0
KMC1 241029Z 16012G17KT 24/20 A2993 RMK A01 T02380195  RH  077%=      5-min Rain = 0
KMC1 241030Z 15011G17KT 24/20 A2993 RMK A01 T02390195  RH  076%=      5-min Rain = 0
KMC1 241031Z 15012G20KT 24/20 A2993 RMK A01 T02390195  RH  076%=      5-min Rain = 0
KMC1 241032Z 14011G18KT 24/20 A2993 RMK A01 T02390195  RH  076%=      5-min Rain = 0
KMC1 241033Z 14009KT 24/20 A2993 RMK A01 T02390195  RH  076%=      5-min Rain = 0
KMC1 241034Z 14011G17KT 24/20 A2993 RMK A01 T02390195  RH  077%=      5-min Rain = 0
KMC1 241035Z 15010G16KT 24/20 A2993 RMK A01 T02380195  RH  077%=      5-min Rain = 0
KMC1 241036Z 15012G17KT 24/20 A2993 RMK A01 T02380195  RH  077%=      5-min Rain = 0
KMC1 241037Z 14008KT 24/20 A2993 RMK A01 T02380195  RH  077%=      5-min Rain = 0
KMC1 241038Z 14008KT 24/20 A2993 RMK A01 T02370195  RH  077%=      5-min Rain = 0
KMC1 241039Z 15010KT 24/20 A2993 RMK A01 T02370195  RH  077%=      5-min Rain = 0
KMC1 241040Z 14011G16KT 24/20 A2993 RMK A01 T02370195  RH  077%=      5-min Rain = 0
KMC1 241041Z 15012G21KT 24/20 A2993 RMK A01 T02370195  RH  077%=      5-min Rain = 0
KMC1 241042Z 15011G18KT 24/20 A2993 RMK A01 T02370195  RH  077%=      5-min Rain = 0
KMC1 241043Z 15012KT 24/20 A2993 RMK A01 T02370195  RH  077%=      5-min Rain = 0
KMC1 241044Z 15013KT 24/20 A2993 RMK A01 T02370195  RH  077%=      5-min Rain = 0
KMC1 241045Z 15010KT 24/20 A2993 RMK A01 T02370195  RH  077%=      5-min Rain = 0
KMC1 241046Z 15008KT 24/20 A2993 RMK A01 T02370195  RH  077%=      5-min Rain = 0
KMC1 241047Z 14009G14KT 24/20 A2993 RMK A01 T02360195  RH  078%=      5-min Rain = 0
KMC1 241048Z 15011KT 24/20 A2993 RMK A01 T02360195  RH  078%=      5-min Rain = 0
KMC1 241049Z 15009G14KT 24/20 A2993 RMK A01 T02360195  RH  078%=      5-min Rain = 0
KMC1 241050Z 14010G18KT 24/20 A2993 RMK A01 T02360195  RH  078%=      5-min Rain = 0
KMC1 241051Z 14011G16KT 24/20 A2993 RMK A01 T02360195  RH  078%=      5-min Rain = 0
KMC1 241052Z 15012G17KT 24/20 A2993 RMK A01 T02350195  RH  078%=      5-min Rain = 0
KMC1 241053Z 15010KT 24/20 A2993 RMK A01 T02350195  RH  078%=      5-min Rain = 0
KMC1 241054Z 15015G22KT 24/20 A2993 RMK A01 T02350195  RH  078%=      5-min Rain = 0
KMC1 241055Z 15012G17KT 24/20 A2993 RMK A01 T02360195  RH  078%=      5-min Rain = 0
KMC1 241056Z 14012G17KT 24/20 A2993 RMK A01 T02360195  RH  078%=      5-min Rain = 0
KMC1 241057Z 15011KT 24/20 A2993 RMK A01 T02360195  RH  078%=      5-min Rain = 0
KMC1 241058Z 14010G18KT 24/20 A2993 RMK A01 T02360195  RH  078%=      5-min Rain = 0
KMC1 241059Z 15011KT 24/20 A2993 RMK A01 T02360195  RH  078%=      5-min Rain = 0
KMC1 241100Z 15011G16KT 24/20 A2993 RMK A01 T02360195  RH  078%=      5-min Rain = 0
KMC1 241101Z 14010KT 24/20 A2993 RMK A01 T02360195  RH  078%=      5-min Rain = 0
KMC1 241102Z 15009KT 24/20 A2993 RMK A01 T02360195  RH  078%=      5-min Rain = 0
KMC1 241103Z 15011KT 24/20 A2993 RMK A01 T02360195  RH  078%=      5-min Rain = 0
KMC1 241104Z 14011KT 24/20 A2993 RMK A01 T02360195  RH  078%=      5-min Rain = 0
KMC1 241105Z 15011G18KT 24/20 A2993 RMK A01 T02360196  RH  078%=      5-min Rain = 0
KMC1 241106Z 14008KT 24/20 A2993 RMK A01 T02360196  RH  078%=      5-min Rain = 0
KMC1 241107Z 16009G15KT 24/20 A2994 RMK A01 T02360196  RH  078%=      5-min Rain = 0
KMC1 241108Z 15009KT 24/20 A2993 RMK A01 T02360196  RH  078%=      5-min Rain = 0
KMC1 241109Z 14011KT 24/20 A2993 RMK A01 T02350196  RH  078%=      5-min Rain = 0
KMC1 241110Z 15010G15KT 24/20 A2993 RMK A01 T02350196  RH  078%=      5-min Rain = 0
KMC1 241111Z 15009G16KT 24/20 A2994 RMK A01 T02350196  RH  078%=      5-min Rain = 0
KMC1 241112Z 15011KT 24/20 A2993 RMK A01 T02350196  RH  079%=      5-min Rain = 0
KMC1 241113Z 14012KT 24/20 A2993 RMK A01 T02350196  RH  079%=      5-min Rain = 0
KMC1 241114Z 14010G18KT 24/20 A2994 RMK A01 T02350196  RH  079%=      5-min Rain = 0
KMC1 241115Z 16013G18KT 24/20 A2994 RMK A01 T02350196  RH  079%=      5-min Rain = 0
KMC1 241116Z 15013G19KT 24/20 A2994 RMK A01 T02350196  RH  079%=      5-min Rain = 0
KMC1 241117Z 16011G17KT 24/20 A2994 RMK A01 T02350196  RH  078%=      5-min Rain = 0
KMC1 241118Z 15011KT 24/20 A2994 RMK A01 T02360196  RH  078%=      5-min Rain = 0
KMC1 241119Z 15007KT 24/20 A2994 RMK A01 T02360197  RH  078%=      5-min Rain = 0
KMC1 241120Z 15009G14KT 24/20 A2994 RMK A01 T02360196  RH  078%=      5-min Rain = 0
KMC1 241121Z 16011G19KT 24/20 A2994 RMK A01 T02360196  RH  079%=      5-min Rain = 0
KMC1 241122Z 14011G16KT 24/20 A2994 RMK A01 T02360197  RH  079%=      5-min Rain = 0
KMC1 241123Z 15010G16KT 24/20 A2994 RMK A01 T02350197  RH  079%=      5-min Rain = 0
KMC1 241124Z 14009KT 24/20 A2994 RMK A01 T02350197  RH  079%=      5-min Rain = 0
KMC1 241125Z 14015G20KT 24/20 A2994 RMK A01 T02350197  RH  079%=      5-min Rain = 0
KMC1 241126Z 15011G18KT 24/20 A2994 RMK A01 T02350196  RH  079%=      5-min Rain = 0
KMC1 241127Z 16013G19KT 24/20 A2994 RMK A01 T02350197  RH  079%=      5-min Rain = 0
KMC1 241128Z 15010KT 24/20 A2994 RMK A01 T02350197  RH  079%=      5-min Rain = 0
KMC1 241129Z 15009KT 24/20 A2994 RMK A01 T02360197  RH  079%=      5-min Rain = 0
KMC1 241130Z 15008KT 24/20 A2994 RMK A01 T02360197  RH  079%=      5-min Rain = 0
KMC1 241131Z 14009G14KT 24/20 A2994 RMK A01 T02350197  RH  079%=      5-min Rain = 0
KMC1 241132Z 15012G17KT 24/20 A2994 RMK A01 T02350197  RH  079%=      5-min Rain = 0
KMC1 241133Z 15008G14KT 24/20 A2994 RMK A01 T02350197  RH  079%=      5-min Rain = 0
KMC1 241134Z 15011KT 24/20 A2994 RMK A01 T02350197  RH  079%=      5-min Rain = 0
KMC1 241135Z 15011KT 24/20 A2994 RMK A01 T02350197  RH  079%=      5-min Rain = 0
KMC1 241136Z 14007KT 24/20 A2994 RMK A01 T02350197  RH  079%=      5-min Rain = 0
KMC1 241137Z 15006KT 23/20 A2994 RMK A01 T02340197  RH  080%=      5-min Rain = 0
KMC1 241138Z 14010G17KT 23/20 A2994 RMK A01 T02340197  RH  080%=      5-min Rain = 0
KMC1 241139Z 15010KT 23/20 A2994 RMK A01 T02340198  RH  080%=      5-min Rain = 0
KMC1 241140Z 15012G17KT 23/20 A2994 RMK A01 T02340197  RH  080%=      5-min Rain = 0
KMC1 241141Z 15011G17KT 23/20 A2994 RMK A01 T02340197  RH  080%=      5-min Rain = 0
KMC1 241142Z 16008KT 23/20 A2994 RMK A01 T02340198  RH  080%=      5-min Rain = 0
KMC1 241143Z 15009KT 23/20 A2995 RMK A01 T02340198  RH  080%=      5-min Rain = 0
KMC1 241144Z 15010G15KT 23/20 A2995 RMK A01 T02340198  RH  080%=      5-min Rain = 0
KMC1 241145Z 15009KT 23/20 A2994 RMK A01 T02340198  RH  080%=      5-min Rain = 0
KMC1 241146Z 15008G13KT 23/20 A2995 RMK A01 T02340198  RH  080%=      5-min Rain = 0
KMC1 241147Z 15009KT 23/20 A2994 RMK A01 T02340198  RH  080%=      5-min Rain = 0
KMC1 241148Z 15007KT 23/20 A2994 RMK A01 T02340198  RH  080%=      5-min Rain = 0
KMC1 241149Z 15008G14KT 23/20 A2994 RMK A01 T02340198  RH  080%=      5-min Rain = 0
KMC1 241150Z 15007KT 23/20 A2995 RMK A01 T02330198  RH  081%=      5-min Rain = 0
KMC1 241151Z 16011G16KT 23/20 A2994 RMK A01 T02330198  RH  081%=      5-min Rain = 0
KMC1 241152Z 15006KT 23/20 A2994 RMK A01 T02330198  RH  081%=      5-min Rain = 0
KMC1 241153Z 14009KT 23/20 A2994 RMK A01 T02330198  RH  081%=      5-min Rain = 0
KMC1 241154Z 15011G17KT 23/20 A2995 RMK A01 T02330198  RH  081%=      5-min Rain = 0
KMC1 241155Z 15011G16KT 23/20 A2994 RMK A01 T02330198  RH  081%=      5-min Rain = 0
KMC1 241156Z 14010G16KT 23/20 A2995 RMK A01 T02330198  RH  081%=      5-min Rain = 0
KMC1 241157Z 15010KT 23/20 A2995 RMK A01 T02340198  RH  080%=      5-min Rain = 0
KMC1 241158Z 15008G14KT 23/20 A2995 RMK A01 T02340198  RH  080%=      5-min Rain = 0
KMC1 241159Z 14006G11KT 23/20 A2995 RMK A01 T02340199  RH  081%=      5-min Rain = 0
KMC1 241200Z 14006G11KT 23/20 A2995 RMK A01 T02330199  RH  081%=      5-min Rain = 0
KMC1 241201Z 15008KT 23/20 A2995 RMK A01 T02330198  RH  081%=      5-min Rain = 0
KMC1 241202Z 15008G14KT 23/20 A2995 RMK A01 T02330198  RH  081%=      5-min Rain = 0
KMC1 241203Z 16008KT 23/20 A2995 RMK A01 T02330198  RH  081%=      5-min Rain = 0
KMC1 241204Z 14008G15KT 23/20 A2995 RMK A01 T02330198  RH  081%=      5-min Rain = 0
KMC1 241205Z 16008KT 23/20 A2995 RMK A01 T02330198  RH  081%=      5-min Rain = 0
KMC1 241206Z 15011KT 23/20 A2995 RMK A01 T02330198  RH  081%=      5-min Rain = 0
KMC1 241207Z 15008KT 23/20 A2995 RMK A01 T02330198  RH  081%=      5-min Rain = 0
KMC1 241208Z 14008KT 23/20 A2995 RMK A01 T02330198  RH  081%=      5-min Rain = 0
KMC1 241209Z 15010KT 23/20 A2995 RMK A01 T02330198  RH  081%=      5-min Rain = 0
KMC1 241210Z 15010G15KT 23/20 A2995 RMK A01 T02340198  RH  081%=      5-min Rain = 0
KMC1 241211Z 14006KT 23/20 A2995 RMK A01 T02340198  RH  081%=      5-min Rain = 0
KMC1 241212Z 15007KT 23/20 A2995 RMK A01 T02340199  RH  081%=      5-min Rain = 0
KMC1 241213Z 14009KT 23/20 A2995 RMK A01 T02340199  RH  081%=      5-min Rain = 0
KMC1 241214Z 14008G13KT 23/20 A2995 RMK A01 T02330199  RH  081%=      5-min Rain = 0
KMC1 241215Z 16009KT 23/20 A2995 RMK A01 T02330199  RH  081%=      5-min Rain = 0
KMC1 241216Z 15009KT 23/20 A2995 RMK A01 T02340199  RH  081%=      5-min Rain = 0
KMC1 241217Z 14006KT 23/20 A2995 RMK A01 T02330199  RH  081%=      5-min Rain = 0
KMC1 241218Z 14007KT 23/20 A2995 RMK A01 T02330199  RH  081%=      5-min Rain = 0
KMC1 241219Z 16009KT 23/20 A2995 RMK A01 T02330199  RH  081%=      5-min Rain = 0
KMC1 241220Z 15012KT 23/20 A2995 RMK A01 T02330199  RH  081%=      5-min Rain = 0
KMC1 241221Z 16008G14KT 23/20 A2995 RMK A01 T02330199  RH  081%=      5-min Rain = 0
KMC1 241222Z 16006KT 23/20 A2995 RMK A01 T02340199  RH  081%=      5-min Rain = 0
KMC1 241223Z 14008G14KT 23/20 A2995 RMK A01 T02330199  RH  081%=      5-min Rain = 0
KMC1 241224Z 15010KT 23/20 A2995 RMK A01 T02330199  RH  081%=      5-min Rain = 0
KMC1 241225Z 15007KT 23/20 A2995 RMK A01 T02340199  RH  081%=      5-min Rain = 0
KMC1 241226Z 15011G17KT 23/20 A2995 RMK A01 T02330199  RH  081%=      5-min Rain = 0
KMC1 241227Z 15008G14KT 23/20 A2995 RMK A01 T02340199  RH  081%=      5-min Rain = 0
KMC1 241228Z 15013KT 23/20 A2995 RMK A01 T02340199  RH  081%=      5-min Rain = 0
KMC1 241229Z 15011KT 23/20 A2995 RMK A01 T02340200  RH  081%=      5-min Rain = 0
KMC1 241230Z 15011KT 23/20 A2995 RMK A01 T02340200  RH  081%=      5-min Rain = 0
KMC1 241231Z 15008KT 23/20 A2995 RMK A01 T02340200  RH  081%=      5-min Rain = 0
KMC1 241232Z 15012KT 23/20 A2995 RMK A01 T02340200  RH  081%=      5-min Rain = 0
KMC1 241233Z 15012G17KT 24/20 A2995 RMK A01 T02350200  RH  081%=      5-min Rain = 0
KMC1 241234Z 15009G14KT 24/20 A2995 RMK A01 T02350200  RH  081%=      5-min Rain = 0
KMC1 241235Z 15012KT 24/20 A2995 RMK A01 T02350200  RH  080%=      5-min Rain = 0
KMC1 241236Z 15012KT 24/20 A2995 RMK A01 T02360200  RH  080%=      5-min Rain = 0
KMC1 241237Z 16011G16KT 24/20 A2995 RMK A01 T02360200  RH  080%=      5-min Rain = 0
KMC1 241238Z 15011KT 24/20 A2995 RMK A01 T02370200  RH  080%=      5-min Rain = 0
KMC1 241239Z 14011G16KT 24/20 A2995 RMK A01 T02370200  RH  080%=      5-min Rain = 0
KMC1 241240Z 14009KT 24/20 A2995 RMK A01 T02370201  RH  080%=      5-min Rain = 0
KMC1 241241Z 14011G17KT 24/20 A2995 RMK A01 T02370201  RH  080%=      5-min Rain = 0
KMC1 241242Z 15010G15KT 24/20 A2995 RMK A01 T02370201  RH  080%=      5-min Rain = 0
KMC1 241243Z 15008KT 24/20 A2995 RMK A01 T02370201  RH  080%=      5-min Rain = 0
KMC1 241244Z 14011G23KT 24/20 A2995 RMK A01 T02370202  RH  081%=      5-min Rain = 0
KMC1 241245Z 14015G21KT 24/20 A2995 RMK A01 T02360200  RH  080%=      5-min Rain = 0
KMC1 241246Z 15014G20KT 24/20 A2995 RMK A01 T02370200  RH  080%=      5-min Rain = 0
KMC1 241247Z 15014KT 24/20 A2995 RMK A01 T02370200  RH  080%=      5-min Rain = 0
KMC1 241248Z 15009G14KT 24/20 A2995 RMK A01 T02370201  RH  080%=      5-min Rain = 0
KMC1 241249Z 15010G15KT 24/20 A2995 RMK A01 T02370201  RH  080%=      5-min Rain = 0
KMC1 241250Z 15011G16KT 24/20 A2995 RMK A01 T02370201  RH  080%=      5-min Rain = 0
KMC1 241251Z 14008KT 24/20 A2995 RMK A01 T02370201  RH  080%=      5-min Rain = 0
KMC1 241252Z 16007KT 24/20 A2995 RMK A01 T02370202  RH  080%=      5-min Rain = 0
KMC1 241253Z 15009G14KT 24/20 A2996 RMK A01 T02370202  RH  081%=      5-min Rain = 0
KMC1 241254Z 15008KT 24/20 A2995 RMK A01 T02370202  RH  081%=      5-min Rain = 0
KMC1 241255Z 15010G15KT 24/20 A2996 RMK A01 T02370201  RH  080%=      5-min Rain = 0
KMC1 241256Z 15014G19KT 24/20 A2996 RMK A01 T02370201  RH  080%=      5-min Rain = 0
KMC1 241257Z 15011KT 24/20 A2996 RMK A01 T02380201  RH  080%=      5-min Rain = 0
KMC1 241258Z 14013G20KT 24/20 A2996 RMK A01 T02380201  RH  080%=      5-min Rain = 0
KMC1 241259Z 14008KT 24/20 A2996 RMK A01 T02380201  RH  080%=      5-min Rain = 0
KMC1 241300Z 15013G21KT 24/20 A2996 RMK A01 T02390201  RH  080%=      5-min Rain = 0
KMC1 241301Z 15013G20KT 24/20 A2996 RMK A01 T02390201  RH  079%=      5-min Rain = 0
KMC1 241302Z 16010KT 24/20 A2996 RMK A01 T02390202  RH  080%=      5-min Rain = 0
KMC1 241303Z 14011KT 24/20 A2996 RMK A01 T02390202  RH  080%=      5-min Rain = 0
KMC1 241304Z 14007KT 24/20 A2996 RMK A01 T02390202  RH  080%=      5-min Rain = 0
KMC1 241305Z 14007G13KT 24/20 A2996 RMK A01 T02380203  RH  080%=      5-min Rain = 0
KMC1 241306Z 15009G17KT 24/20 A2996 RMK A01 T02390203  RH  080%=      5-min Rain = 0
KMC1 241307Z 15016KT 24/20 A2996 RMK A01 T02380202  RH  080%=      5-min Rain = 0
KMC1 241308Z 14013G18KT 24/20 A2996 RMK A01 T02390201  RH  079%=      5-min Rain = 0
KMC1 241309Z 15014KT 24/20 A2996 RMK A01 T02390201  RH  079%=      5-min Rain = 0
KMC1 241310Z 14013KT 24/20 A2996 RMK A01 T02390201  RH  079%=      5-min Rain = 0
KMC1 241311Z 16008G13KT 24/20 A2996 RMK A01 T02390202  RH  080%=      5-min Rain = 0
KMC1 241312Z 15011G17KT 24/20 A2996 RMK A01 T02390202  RH  080%=      5-min Rain = 0
KMC1 241313Z 15012KT 24/20 A2996 RMK A01 T02390201  RH  079%=      5-min Rain = 0
KMC1 241314Z 15010KT 24/20 A2996 RMK A01 T02400202  RH  079%=      5-min Rain = 0
KMC1 241315Z 15009G15KT 24/20 A2996 RMK A01 T02400202  RH  079%=      5-min Rain = 0
KMC1 241316Z 15008KT 24/20 A2996 RMK A01 T02400203  RH  080%=      5-min Rain = 0
KMC1 241317Z 14010G15KT 24/20 A2996 RMK A01 T02400203  RH  080%=      5-min Rain = 0
KMC1 241318Z 14010KT 24/20 A2996 RMK A01 T02400202  RH  080%=      5-min Rain = 0
KMC1 241319Z 14011KT 24/20 A2997 RMK A01 T02400202  RH  079%=      5-min Rain = 0
KMC1 241320Z 14009KT 24/20 A2996 RMK A01 T02400202  RH  079%=      5-min Rain = 0
KMC1 241321Z 15007KT 24/20 A2996 RMK A01 T02400202  RH  079%=      5-min Rain = 0
KMC1 241322Z 15008KT 24/20 A2997 RMK A01 T02400203  RH  080%=      5-min Rain = 0
KMC1 241323Z 15008G13KT 24/20 A2997 RMK A01 T02400203  RH  080%=      5-min Rain = 0
KMC1 241324Z 14012G17KT 24/20 A2996 RMK A01 T02400203  RH  080%=      5-min Rain = 0
KMC1 241325Z 15008KT 24/20 A2997 RMK A01 T02400202  RH  079%=      5-min Rain = 0
KMC1 241326Z 15009KT 24/20 A2997 RMK A01 T02400203  RH  080%=      5-min Rain = 0
KMC1 241327Z 15008G13KT 24/20 A2997 RMK A01 T02400203  RH  079%=      5-min Rain = 0
KMC1 241328Z 15008G13KT 24/20 A2997 RMK A01 T02400203  RH  079%=      5-min Rain = 0
KMC1 241329Z 15010G16KT 24/20 A2997 RMK A01 T02400203  RH  080%=      5-min Rain = 0
KMC1 241330Z 16011KT 24/20 A2997 RMK A01 T02400202  RH  079%=      5-min Rain = 0
KMC1 241331Z 14014G24KT 24/20 A2997 RMK A01 T02400202  RH  079%=      5-min Rain = 0
KMC1 241332Z 14010G15KT 24/20 A2997 RMK A01 T02400201  RH  079%=      5-min Rain = 0
KMC1 241333Z 15010G16KT 24/20 A2997 RMK A01 T02410202  RH  079%=      5-min Rain = 0
KMC1 241334Z 13013KT 24/20 A2997 RMK A01 T02410202  RH  079%=      5-min Rain = 0
KMC1 241335Z 15014G20KT 24/20 A2997 RMK A01 T02400201  RH  079%=      5-min Rain = 0
KMC1 241336Z 16015G20KT 24/20 A2997 RMK A01 T02410201  RH  078%=      5-min Rain = 0
KMC1 241337Z 15009G14KT 24/20 A2997 RMK A01 T02400201  RH  079%=      5-min Rain = 0
KMC1 241338Z 15010KT 24/20 A2997 RMK A01 T02410202  RH  079%=      5-min Rain = 0
KMC1 241339Z 14011G17KT 24/20 A2997 RMK A01 T02410202  RH  079%=      5-min Rain = 0
KMC1 241340Z 15013G20KT 24/20 A2997 RMK A01 T02410201  RH  078%=      5-min Rain = 0
KMC1 241341Z 15015G22KT 24/20 A2997 RMK A01 T02410201  RH  078%=      5-min Rain = 0
KMC1 241342Z 14012KT 24/20 A2997 RMK A01 T02410201  RH  079%=      5-min Rain = 0
KMC1 241343Z 13015G22KT 24/20 A2997 RMK A01 T02410201  RH  078%=      5-min Rain = 0
KMC1 241344Z 14009KT 24/20 A2997 RMK A01 T02410201  RH  079%=      5-min Rain = 0
KMC1 241345Z 14009G15KT 24/20 A2997 RMK A01 T02410201  RH  079%=      5-min Rain = 0
KMC1 241346Z 14015G21KT 24/20 A2997 RMK A01 T02410202  RH  079%=      5-min Rain = 0
KMC1 241347Z 15014KT 24/20 A2997 RMK A01 T02400201  RH  079%=      5-min Rain = 0
KMC1 241348Z 15015KT 24/20 A2997 RMK A01 T02400201  RH  079%=      5-min Rain = 0
KMC1 241349Z 14012G19KT 24/20 A2997 RMK A01 T02400201  RH  079%=      5-min Rain = 0
KMC1 241350Z 13014G20KT 24/20 A2997 RMK A01 T02400201  RH  079%=      5-min Rain = 0
KMC1 241351Z 15013G18KT 24/20 A2997 RMK A01 T02400201  RH  079%=      5-min Rain = 0
KMC1 241352Z 15011G17KT 24/20 A2997 RMK A01 T02400201  RH  079%=      5-min Rain = 0
KMC1 241353Z 15009G15KT 24/20 A2997 RMK A01 T02400202  RH  079%=      5-min Rain = 0
KMC1 241354Z 14011G17KT 24/20 A2997 RMK A01 T02400202  RH  079%=      5-min Rain = 0
KMC1 241355Z 15011KT 24/20 A2997 RMK A01 T02400202  RH  079%=      5-min Rain = 0
KMC1 241356Z 15010G16KT 24/20 A2997 RMK A01 T02400202  RH  079%=      5-min Rain = 0
KMC1 241357Z 14011KT 24/20 A2997 RMK A01 T02400202  RH  079%=      5-min Rain = 0
KMC1 241358Z 14009G15KT 24/20 A2997 RMK A01 T02400202  RH  079%=      5-min Rain = 0
KMC1 241359Z 15009G15KT 24/20 A2997 RMK A01 T02410202  RH  079%=      5-min Rain = 0
KMC1 241400Z 15010KT 24/20 A2997 RMK A01 T02410202  RH  079%=      5-min Rain = 0
KMC1 241401Z 15013KT 24/20 A2997 RMK A01 T02410201  RH  079%=      5-min Rain = 0
KMC1 241402Z 13013KT 24/20 A2997 RMK A01 T02400201  RH  078%=      5-min Rain = 0
KMC1 241403Z 14011G16KT 24/20 A2997 RMK A01 T02400201  RH  078%=      5-min Rain = 0
KMC1 241404Z 14012G17KT 24/20 A2997 RMK A01 T02410201  RH  079%=      5-min Rain = 0
KMC1 241405Z 16008KT 24/20 A2997 RMK A01 T02410202  RH  079%=      5-min Rain = 0
KMC1 241406Z 15010G15KT 24/20 A2997 RMK A01 T02410202  RH  079%=      5-min Rain = 0
KMC1 241407Z 15011G16KT 24/20 A2997 RMK A01 T02400202  RH  079%=      5-min Rain = 0
KMC1 241408Z 16011G18KT 24/20 A2997 RMK A01 T02410202  RH  079%=      5-min Rain = 0
KMC1 241409Z 15009KT 24/20 A2997 RMK A01 T02410202  RH  079%=      5-min Rain = 0
KMC1 241410Z 15010KT 24/20 A2997 RMK A01 T02400202  RH  079%=      5-min Rain = 0
KMC1 241411Z 15007KT 24/20 A2997 RMK A01 T02410202  RH  079%=      5-min Rain = 0
KMC1 241412Z 13008G14KT 24/20 A2997 RMK A01 T02410203  RH  079%=      5-min Rain = 0
KMC1 241413Z 15007G15KT 24/20 A2997 RMK A01 T02410203  RH  079%=      5-min Rain = 0
KMC1 241414Z 14009G14KT 24/20 A2997 RMK A01 T02400202  RH  079%=      5-min Rain = 0
KMC1 241415Z 14009KT 24/20 A2997 RMK A01 T02410202  RH  079%=      5-min Rain = 0
KMC1 241416Z 16013KT 24/20 A2997 RMK A01 T02410202  RH  079%=      5-min Rain = 0
KMC1 241417Z 15010G16KT 24/20 A2998 RMK A01 T02410201  RH  079%=      5-min Rain = 0
KMC1 241418Z 15010G16KT 24/20 A2998 RMK A01 T02410201  RH  079%=      5-min Rain = 0
KMC1 241419Z 14012G18KT 24/20 A2998 RMK A01 T02410201  RH  079%=      5-min Rain = 0
KMC1 241420Z 15010KT 24/20 A2998 RMK A01 T02410201  RH  079%=      5-min Rain = 0
KMC1 241421Z 15009G14KT 24/20 A2998 RMK A01 T02410201  RH  079%=      5-min Rain = 0
KMC1 241422Z 16013G20KT 24/20 A2998 RMK A01 T02400202  RH  079%=      5-min Rain = 0
KMC1 241423Z 16009KT 24/20 A2998 RMK A01 T02400202  RH  079%=      5-min Rain = 0
KMC1 241424Z 15010KT 24/20 A2998 RMK A01 T02400202  RH  079%=      5-min Rain = 0
KMC1 241425Z 16011KT 24/20 A2998 RMK A01 T02400201  RH  079%=      5-min Rain = 0
KMC1 241426Z 16009KT 24/20 A2998 RMK A01 T02400201  RH  079%=      5-min Rain = 0
KMC1 241427Z 15013KT 24/20 A2998 RMK A01 T02410201  RH  079%=      5-min Rain = 0
KMC1 241428Z 15009G14KT 24/20 A2998 RMK A01 T02410201  RH  078%=      5-min Rain = 0
KMC1 241429Z 14011KT 24/20 A2998 RMK A01 T02410202  RH  079%=      5-min Rain = 0
KMC1 241430Z 16011KT 24/20 A2998 RMK A01 T02410202  RH  079%=      5-min Rain = 0
KMC1 241431Z 15010KT 24/20 A2998 RMK A01 T02410201  RH  078%=      5-min Rain = 0
KMC1 241432Z 16010KT 24/20 A2998 RMK A01 T02420202  RH  078%=      5-min Rain = 0
KMC1 241433Z 15008KT 24/20 A2998 RMK A01 T02420202  RH  079%=      5-min Rain = 0
KMC1 241434Z 15005KT 24/20 A2998 RMK A01 T02420203  RH  079%=      5-min Rain = 0
KMC1 241435Z 13010G18KT 24/20 A2998 RMK A01 T02430204  RH  079%=      5-min Rain = 0
KMC1 241436Z 15009KT 24/20 A2998 RMK A01 T02430203  RH  078%=      5-min Rain = 0
KMC1 241437Z 15010KT 24/20 A2998 RMK A01 T02440203  RH  078%=      5-min Rain = 0
KMC1 241438Z 15009KT 25/20 A2998 RMK A01 T02450204  RH  078%=      5-min Rain = 0
KMC1 241439Z 15010KT 25/20 A2998 RMK A01 T02450203  RH  077%=      5-min Rain = 0
KMC1 241440Z 14010KT 25/20 A2998 RMK A01 T02450203  RH  077%=      5-min Rain = 0
KMC1 241441Z 15007KT 25/20 A2998 RMK A01 T02450203  RH  077%=      5-min Rain = 0
KMC1 241442Z 14013G18KT 25/20 A2998 RMK A01 T02460203  RH  077%=      5-min Rain = 0
KMC1 241443Z 14011KT 25/20 A2998 RMK A01 T02460203  RH  077%=      5-min Rain = 0
KMC1 241444Z 14010G16KT 25/20 A2998 RMK A01 T02460204  RH  077%=      5-min Rain = 0
KMC1 241445Z 15010KT 25/21 A2999 RMK A01 T02460205  RH  078%=      5-min Rain = 0
KMC1 241446Z 14013G18KT 25/20 A2999 RMK A01 T02460204  RH  077%=      5-min Rain = 0
KMC1 241447Z 15013KT 25/20 A2999 RMK A01 T02450203  RH  077%=      5-min Rain = 0
KMC1 241448Z 16012G17KT 25/20 A2999 RMK A01 T02450202  RH  077%=      5-min Rain = 0
KMC1 241449Z 15009G16KT 24/20 A2999 RMK A01 T02440202  RH  077%=      5-min Rain = 0
KMC1 241450Z 14007G12KT 24/20 A2999 RMK A01 T02440204  RH  078%=      5-min Rain = 0
KMC1 241451Z 14011KT 25/20 A2999 RMK A01 T02450204  RH  078%=      5-min Rain = 0
KMC1 241452Z 14012G17KT 25/20 A2999 RMK A01 T02460203  RH  077%=      5-min Rain = 0
KMC1 241453Z 16009G16KT 25/20 A2999 RMK A01 T02460204  RH  077%=      5-min Rain = 0
KMC1 241454Z 16012G20KT 25/20 A2999 RMK A01 T02460203  RH  077%=      5-min Rain = 0
KMC1 241455Z 16013G18KT 25/20 A2998 RMK A01 T02460202  RH  077%=      5-min Rain = 0
KMC1 241456Z 15009G15KT 25/20 A2999 RMK A01 T02460203  RH  077%=      5-min Rain = 0
KMC1 241457Z 14006KT 25/20 A2999 RMK A01 T02460204  RH  078%=      5-min Rain = 0
KMC1 241458Z 13008KT 25/21 A2999 RMK A01 T02460205  RH  078%=      5-min Rain = 0
KMC1 241459Z 16009KT 25/20 A2999 RMK A01 T02460204  RH  077%=      5-min Rain = 0
KMC1 241500Z 16010KT 25/21 A2999 RMK A01 T02470205  RH  077%=      5-min Rain = 0
KMC1 241501Z 16009G15KT 25/20 A2999 RMK A01 T02470204  RH  077%=      5-min Rain = 0
KMC1 241502Z 15009KT 25/20 A2999 RMK A01 T02470204  RH  077%=      5-min Rain = 0
KMC1 241503Z 15011G17KT 25/20 A2999 RMK A01 T02470203  RH  077%=      5-min Rain = 0
KMC1 241504Z 15009KT 25/20 A2999 RMK A01 T02470204  RH  077%=      5-min Rain = 0
KMC1 241505Z 16008KT 25/21 A2999 RMK A01 T02470205  RH  077%=      5-min Rain = 0
KMC1 241506Z 15007KT 25/20 A2999 RMK A01 T02470204  RH  077%=      5-min Rain = 0
KMC1 241507Z 15010KT 25/20 A2999 RMK A01 T02480204  RH  077%=      5-min Rain = 0
KMC1 241508Z 15009G16KT 25/21 A2999 RMK A01 T02480205  RH  077%=      5-min Rain = 0
KMC1 241509Z 14010KT 25/20 A2999 RMK A01 T02480204  RH  077%=      5-min Rain = 0
KMC1 241510Z 14008KT 25/20 A2999 RMK A01 T02470204  RH  077%=      5-min Rain = 0
KMC1 241511Z 15007KT 25/20 A2999 RMK A01 T02470204  RH  077%=      5-min Rain = 0
KMC1 241512Z 14008KT 25/20 A2999 RMK A01 T02470204  RH  077%=      5-min Rain = 0
KMC1 241513Z 14009KT 25/20 A2999 RMK A01 T02470204  RH  077%=      5-min Rain = 0
KMC1 241514Z 14012KT 25/20 A2999 RMK A01 T02470203  RH  077%=      5-min Rain = 0
KMC1 241515Z 14013G20KT 25/20 A2999 RMK A01 T02470203  RH  076%=      5-min Rain = 0
KMC1 241516Z 14014KT 25/20 A2999 RMK A01 T02460202  RH  076%=      5-min Rain = 0
KMC1 241517Z 14012G17KT 25/20 A2999 RMK A01 T02460202  RH  077%=      5-min Rain = 0
KMC1 241518Z 14010KT 25/20 A2999 RMK A01 T02460202  RH  077%=      5-min Rain = 0
KMC1 241519Z 14010G15KT 25/20 A2999 RMK A01 T02450201  RH  077%=      5-min Rain = 0
KMC1 241520Z 13009KT 25/20 A2999 RMK A01 T02450203  RH  077%=      5-min Rain = 0
KMC1 241521Z 14012KT 25/20 A2999 RMK A01 T02450202  RH  077%=      5-min Rain = 0
KMC1 241522Z 14008KT 25/20 A2999 RMK A01 T02450203  RH  077%=      5-min Rain = 0
KMC1 241523Z 15006KT 25/20 A2999 RMK A01 T02450203  RH  078%=      5-min Rain = 0
KMC1 241524Z 14006KT 25/20 A2999 RMK A01 T02460204  RH  078%=      5-min Rain = 0
KMC1 241525Z 14009KT 25/20 A2999 RMK A01 T02460204  RH  077%=      5-min Rain = 0
KMC1 241526Z 14008KT 25/20 A2999 RMK A01 T02460203  RH  077%=      5-min Rain = 0
KMC1 241527Z 15006KT 25/20 A2999 RMK A01 T02470204  RH  077%=      5-min Rain = 0
KMC1 241528Z 14007KT 25/21 A2999 RMK A01 T02480205  RH  077%=      5-min Rain = 0
KMC1 241529Z 13008KT 25/21 A2999 RMK A01 T02490206  RH  077%=      5-min Rain = 0
KMC1 241530Z 16009KT 25/21 A2999 RMK A01 T02490205  RH  077%=      5-min Rain = 0
KMC1 241531Z 15007KT 25/21 A2999 RMK A01 T02500205  RH  076%=      5-min Rain = 0
KMC1 241532Z 14009G14KT 25/21 A2999 RMK A01 T02490205  RH  076%=      5-min Rain = 0
KMC1 241533Z 15010G15KT 25/20 A2999 RMK A01 T02490204  RH  076%=      5-min Rain = 0
KMC1 241534Z 14008G13KT 25/20 A2999 RMK A01 T02490204  RH  076%=      5-min Rain = 0
KMC1 241535Z 14013KT 25/20 A2999 RMK A01 T02490203  RH  076%=      5-min Rain = 0
KMC1 241536Z 14008KT 25/20 A2999 RMK A01 T02480204  RH  076%=      5-min Rain = 0
KMC1 241537Z 14010G18KT 25/20 A30 RMK A01 T02480204  RH  077%=      5-min Rain = 0
KMC1 241538Z 15010KT 25/20 A30 RMK A01 T02490203  RH  076%=      5-min Rain = 0
KMC1 241539Z 15011G18KT 25/20 A2999 RMK A01 T02490204  RH  076%=      5-min Rain = 0
KMC1 241540Z 13012G18KT 25/20 A30 RMK A01 T02490203  RH  076%=      5-min Rain = 0
KMC1 241541Z 15010KT 25/20 A30 RMK A01 T02490203  RH  076%=      5-min Rain = 0
KMC1 241542Z 15009KT 25/20 A30 RMK A01 T02490204  RH  076%=      5-min Rain = 0
KMC1 241543Z 16008G13KT 25/20 A30 RMK A01 T02490204  RH  076%=      5-min Rain = 0
KMC1 241544Z 15007KT 25/21 A30 RMK A01 T02490206  RH  077%=      5-min Rain = 0
KMC1 241545Z 14007KT 25/21 A30 RMK A01 T02500205  RH  076%=      5-min Rain = 0
KMC1 241546Z 14009KT 25/21 A30 RMK A01 T02500205  RH  076%=      5-min Rain = 0
KMC1 241547Z 15006KT 25/21 A2999 RMK A01 T02500205  RH  076%=      5-min Rain = 0
KMC1 241548Z 13008G17KT 25/21 A30 RMK A01 T02500206  RH  077%=      5-min Rain = 0
KMC1 241549Z 15010G17KT 25/20 A2999 RMK A01 T02500204  RH  076%=      5-min Rain = 0
KMC1 241550Z 15012G19KT 25/20 A2999 RMK A01 T02500202  RH  075%=      5-min Rain = 0
KMC1 241551Z 16010G15KT 25/20 A2999 RMK A01 T02490202  RH  075%=      5-min Rain = 0
KMC1 241552Z 15008G13KT 25/20 A30 RMK A01 T02490204  RH  076%=      5-min Rain = 0
KMC1 241553Z 14007G14KT 25/20 A30 RMK A01 T02500204  RH  075%=      5-min Rain = 0
KMC1 241554Z 14009KT 25/21 A30 RMK A01 T02510205  RH  075%=      5-min Rain = 0
KMC1 241555Z 14012G18KT 25/20 A30 RMK A01 T02520204  RH  075%=      5-min Rain = 0
KMC1 241556Z 15012KT 25/20 A30 RMK A01 T02520203  RH  074%=      5-min Rain = 0
KMC1 241557Z 15008KT 25/20 A30 RMK A01 T02520203  RH  074%=      5-min Rain = 0
KMC1 241558Z 14010G15KT 25/20 A30 RMK A01 T02520204  RH  074%=      5-min Rain = 0
KMC1 241559Z 15011KT 25/20 A30 RMK A01 T02520203  RH  074%=      5-min Rain = 0
KMC1 241600Z 14010KT 25/20 A30 RMK A01 T02520204  RH  074%=      5-min Rain = 0
KMC1 241601Z 13010KT 25/20 A30 RMK A01 T02520204  RH  075%=      5-min Rain = 0
KMC1 241602Z 14009KT 25/20 A30 RMK A01 T02520204  RH  075%=      5-min Rain = 0
KMC1 241603Z 15009KT 25/20 A30 RMK A01 T02520204  RH  075%=      5-min Rain = 0
KMC1 241604Z 15011KT 25/20 A30 RMK A01 T02510203  RH  075%=      5-min Rain = 0
KMC1 241605Z 13010KT 25/20 A30 RMK A01 T02510203  RH  075%=      5-min Rain = 0
KMC1 241606Z 14009KT 25/20 A30 RMK A01 T02510204  RH  075%=      5-min Rain = 0
KMC1 241607Z 14009G15KT 25/20 A30 RMK A01 T02510204  RH  075%=      5-min Rain = 0
KMC1 241608Z 15010KT 25/20 A30 RMK A01 T02510203  RH  075%=      5-min Rain = 0
KMC1 241609Z 15011KT 25/20 A30 RMK A01 T02510203  RH  075%=      5-min Rain = 0
KMC1 241610Z 16008KT 25/20 A30 RMK A01 T02510203  RH  075%=      5-min Rain = 0
KMC1 241611Z 15008G14KT 25/20 A30 RMK A01 T02510203  RH  075%=      5-min Rain = 0
KMC1 241612Z 15009G16KT 25/20 A30 RMK A01 T02520204  RH  075%=      5-min Rain = 0
KMC1 241613Z 16013KT 25/20 A30 RMK A01 T02530203  RH  074%=      5-min Rain = 0
KMC1 241614Z 16008KT 25/20 A30 RMK A01 T02540203  RH  074%=      5-min Rain = 0
KMC1 241615Z 15007G14KT 26/21 A30 RMK A01 T02550206  RH  074%=      5-min Rain = 0
KMC1 241616Z 16011KT 26/21 A30 RMK A01 T02560205  RH  073%=      5-min Rain = 0
KMC1 241617Z 15008KT 26/20 A30 RMK A01 T02570204  RH  073%=      5-min Rain = 0
KMC1 241618Z 15004KT 26/21 A30 RMK A01 T02570207  RH  074%=      5-min Rain = 0
KMC1 241619Z 14008G13KT 26/21 A30 RMK A01 T02570209  RH  075%=      5-min Rain = 0
KMC1 241620Z 14010G15KT 26/21 A30 RMK A01 T02590206  RH  073%=      5-min Rain = 0
KMC1 241621Z 14010KT 26/20 A30 RMK A01 T02590204  RH  072%=      5-min Rain = 0
KMC1 241622Z 13008G16KT 26/21 A30 RMK A01 T02570205  RH  073%=      5-min Rain = 0
KMC1 241623Z 15013G18KT 26/20 A30 RMK A01 T02570202  RH  072%=      5-min Rain = 0
KMC1 241624Z 14009G14KT 26/20 A30 RMK A01 T02550202  RH  072%=      5-min Rain = 0
KMC1 241625Z 15010G15KT 25/20 A30 RMK A01 T02540201  RH  072%=      5-min Rain = 0
KMC1 241626Z 15007G12KT 25/20 A30 RMK A01 T02540201  RH  073%=      5-min Rain = 0
KMC1 241627Z 13010G17KT 25/20 A30 RMK A01 T02530202  RH  073%=      5-min Rain = 0
KMC1 241628Z 14011G16KT 25/20 A30 RMK A01 T02540201  RH  073%=      5-min Rain = 0
KMC1 241629Z 15010G15KT 25/20 A30 RMK A01 T02540202  RH  073%=      5-min Rain = 0
KMC1 241630Z 14009KT 25/20 A30 RMK A01 T02540202  RH  073%=      5-min Rain = 0
KMC1 241631Z 13010KT 25/20 A30 RMK A01 T02540202  RH  073%=      5-min Rain = 0
KMC1 241632Z 14011KT 26/20 A30 RMK A01 T02550203  RH  073%=      5-min Rain = 0
KMC1 241633Z 15011G16KT 26/20 A30 RMK A01 T02560201  RH  072%=      5-min Rain = 0
KMC1 241634Z 14012KT 26/20 A30 RMK A01 T02560203  RH  072%=      5-min Rain = 0
KMC1 241635Z 13011KT 26/20 A30 RMK A01 T02570202  RH  072%=      5-min Rain = 0
KMC1 241636Z 14008KT 26/20 A30 RMK A01 T02560201  RH  072%=      5-min Rain = 0
KMC1 241637Z 14006KT 26/20 A3001 RMK A01 T02550204  RH  073%=      5-min Rain = 0
KMC1 241638Z 13006G14KT 26/21 A3001 RMK A01 T02550205  RH  074%=      5-min Rain = 0
KMC1 241639Z 12013KT 26/20 A3001 RMK A01 T02550203  RH  073%=      5-min Rain = 0
KMC1 241640Z 13010KT 26/20 A3001 RMK A01 T02550203  RH  073%=      5-min Rain = 0
KMC1 241641Z 14010KT 25/20 A3001 RMK A01 T02540203  RH  073%=      5-min Rain = 0
KMC1 241642Z 14009G14KT 25/20 A3001 RMK A01 T02530203  RH  073%=      5-min Rain = 0
KMC1 241643Z 14008KT 25/20 A3001 RMK A01 T02540203  RH  073%=      5-min Rain = 0
KMC1 241644Z 13011G18KT 25/20 A3001 RMK A01 T02540204  RH  074%=      5-min Rain = 0
KMC1 241645Z 14011G16KT 26/20 A3001 RMK A01 T02550203  RH  073%=      5-min Rain = 0
KMC1 241646Z 15008G15KT 26/20 A3001 RMK A01 T02560203  RH  073%=      5-min Rain = 0
KMC1 241647Z 15012G17KT 26/20 A3001 RMK A01 T02560204  RH  073%=      5-min Rain = 0
KMC1 241648Z 15012KT 26/20 A3001 RMK A01 T02560202  RH  072%=      5-min Rain = 0
KMC1 241649Z 14010KT 26/20 A3001 RMK A01 T02560202  RH  072%=      5-min Rain = 0
KMC1 241650Z 14009KT 26/20 A3001 RMK A01 T02550202  RH  072%=      5-min Rain = 0
KMC1 241651Z 15008KT 26/20 A3001 RMK A01 T02550203  RH  073%=      5-min Rain = 0
KMC1 241652Z 15008G13KT 26/21 A3001 RMK A01 T02570205  RH  073%=      5-min Rain = 0
KMC1 241653Z 14007G12KT 26/21 A3001 RMK A01 T02580205  RH  072%=      5-min Rain = 0
KMC1 241654Z 13007KT 26/21 A3001 RMK A01 T02600207  RH  072%=      5-min Rain = 0
KMC1 241655Z 14008KT 26/21 A3001 RMK A01 T02610207  RH  072%=      5-min Rain = 0
KMC1 241656Z 14008KT 26/21 A3001 RMK A01 T02620206  RH  071%=      5-min Rain = 0
KMC1 241657Z 13010KT 26/21 A3001 RMK A01 T02630205  RH  071%=      5-min Rain = 0
KMC1 241658Z 14012KT 26/20 A3001 RMK A01 T02620204  RH  070%=      5-min Rain = 0
KMC1 241659Z 13012KT 26/20 A3001 RMK A01 T02620203  RH  070%=      5-min Rain = 0
KMC1 241700Z 13013G18KT 26/20 A3001 RMK A01 T02610201  RH  070%=      5-min Rain = 0
KMC1 241701Z 13009G15KT 26/20 A3001 RMK A01 T02600201  RH  070%=      5-min Rain = 0
KMC1 241702Z 15008G13KT 26/20 A3001 RMK A01 T02600203  RH  071%=      5-min Rain = 0
KMC1 241703Z 14006KT 26/20 A3001 RMK A01 T02590203  RH  071%=      5-min Rain = 0
KMC1 241704Z 14008G14KT 26/20 A3001 RMK A01 T02600204  RH  071%=      5-min Rain = 0
KMC1 241705Z 14011G16KT 26/20 A3001 RMK A01 T02620203  RH  070%=      5-min Rain = 0
KMC1 241706Z 13014KT 26/20 A3001 RMK A01 T02640202  RH  069%=      5-min Rain = 0
KMC1 241707Z 14010KT 27/21 A3001 RMK A01 T02660205  RH  069%=      5-min Rain = 0
KMC1 241708Z 15011KT 27/21 A3001 RMK A01 T02690206  RH  068%=      5-min Rain = 0
KMC1 241709Z 16013KT 27/20 A3001 RMK A01 T02690202  RH  067%=      5-min Rain = 0
KMC1 241710Z 14008G14KT 27/20 A3001 RMK A01 T02680204  RH  068%=      5-min Rain = 0
KMC1 241711Z 13010G17KT 27/21 A3001 RMK A01 T02680205  RH  068%=      5-min Rain = 0
KMC1 241712Z 14009KT 27/20 A3001 RMK A01 T02680204  RH  068%=      5-min Rain = 0
KMC1 241713Z 13008G14KT 27/21 A3001 RMK A01 T02690205  RH  068%=      5-min Rain = 0
KMC1 241714Z 15011KT 27/20 A3001 RMK A01 T02690204  RH  068%=      5-min Rain = 0
KMC1 241715Z 16012KT 27/20 A3001 RMK A01 T02690203  RH  067%=      5-min Rain = 0
KMC1 241716Z 15011G18KT 27/20 A3001 RMK A01 T02690202  RH  067%=      5-min Rain = 0
KMC1 241717Z 13009G15KT 27/20 A3001 RMK A01 T02700204  RH  067%=      5-min Rain = 0
KMC1 241718Z 13012KT 27/21 A3001 RMK A01 T02720205  RH  067%=      5-min Rain = 0
KMC1 241719Z 14012KT 27/20 A3001 RMK A01 T02710204  RH  067%=      5-min Rain = 0
KMC1 241720Z 13014KT 27/20 A3001 RMK A01 T02690201  RH  066%=      5-min Rain = 0
KMC1 241721Z 13012G20KT 27/20 A3001 RMK A01 T02680201  RH  067%=      5-min Rain = 0
KMC1 241722Z 13014G19KT 27/20 A3001 RMK A01 T02670201  RH  067%=      5-min Rain = 0
KMC1 241723Z 15013G19KT 27/20 A3001 RMK A01 T02670200  RH  067%=      5-min Rain = 0
KMC1 241724Z 14013G19KT 27/20 A3001 RMK A01 T02670201  RH  067%=      5-min Rain = 0
KMC1 241725Z 13016KT 27/20 A3001 RMK A01 T02680200  RH  067%=      5-min Rain = 0
KMC1 241726Z 16011KT 27/20 A3001 RMK A01 T02670201  RH  067%=      5-min Rain = 0
KMC1 241727Z 15012KT 27/20 A3001 RMK A01 T02670200  RH  067%=      5-min Rain = 0
KMC1 241728Z 15013G18KT 27/20 A3001 RMK A01 T02670200  RH  067%=      5-min Rain = 0
KMC1 241729Z 14011G17KT 27/20 A3001 RMK A01 T02650201  RH  068%=      5-min Rain = 0
KMC1 241730Z 13012KT 26/20 A3001 RMK A01 T02640200  RH  068%=      5-min Rain = 0
KMC1 241731Z 15010KT 26/20 A3001 RMK A01 T02630200  RH  068%=      5-min Rain = 0
KMC1 241732Z 15011G16KT 26/20 A3001 RMK A01 T02630200  RH  068%=      5-min Rain = 0
KMC1 241733Z 14008G13KT 26/20 A3001 RMK A01 T02620200  RH  069%=      5-min Rain = 0
KMC1 241734Z 14010KT 26/20 A3001 RMK A01 T02620200  RH  069%=      5-min Rain = 0
KMC1 241735Z 12010KT 26/20 A3001 RMK A01 T02610199  RH  069%=      5-min Rain = 0
KMC1 241736Z 14010G15KT 26/20 A3001 RMK A01 T02610199  RH  069%=      5-min Rain = 0
KMC1 241737Z 15008G14KT 26/20 A3001 RMK A01 T02600198  RH  069%=      5-min Rain = 0
KMC1 241738Z 15011KT 26/20 A3001 RMK A01 T02600198  RH  068%=      5-min Rain = 0
KMC1 241739Z 14011G16KT 26/20 A3001 RMK A01 T02610197  RH  068%=      5-min Rain = 0
KMC1 241740Z 15010KT 26/20 A3001 RMK A01 T02610198  RH  068%=      5-min Rain = 0
KMC1 241741Z 15009KT 26/20 A3001 RMK A01 T02600198  RH  068%=      5-min Rain = 0
KMC1 241742Z 15008KT 26/20 A3001 RMK A01 T02590198  RH  069%=      5-min Rain = 0
KMC1 241743Z 13007KT 26/20 A3001 RMK A01 T02600200  RH  070%=      5-min Rain = 0
KMC1 241744Z 12008KT 26/20 A3001 RMK A01 T02590199  RH  069%=      5-min Rain = 0
KMC1 241745Z 12010KT 26/20 A3001 RMK A01 T02590199  RH  070%=      5-min Rain = 0
KMC1 241746Z 12009KT 26/20 A3001 RMK A01 T02580199  RH  070%=      5-min Rain = 0
KMC1 241747Z 14007G12KT 26/20 A3001 RMK A01 T02580200  RH  070%=      5-min Rain = 0
KMC1 241748Z 14005KT 26/20 A3001 RMK A01 T02580201  RH  071%=      5-min Rain = 0
KMC1 241749Z 14007KT 26/20 A3001 RMK A01 T02580201  RH  071%=      5-min Rain = 0
KMC1 241750Z 15006KT 26/20 A3001 RMK A01 T02580201  RH  071%=      5-min Rain = 0
KMC1 241751Z 15007G12KT 26/20 A3001 RMK A01 T02580201  RH  071%=      5-min Rain = 0
KMC1 241752Z 15009KT 26/20 A3001 RMK A01 T02580199  RH  070%=      5-min Rain = 0
KMC1 241753Z 14009KT 26/20 A3001 RMK A01 T02580198  RH  070%=      5-min Rain = 0
KMC1 241754Z 13007G12KT 26/20 A3001 RMK A01 T02570199  RH  070%=      5-min Rain = 0
KMC1 241755Z 14007KT 26/20 A3001 RMK A01 T02580201  RH  070%=      5-min Rain = 0
KMC1 241756Z 13008G14KT 26/20 A3001 RMK A01 T02590201  RH  070%=      5-min Rain = 0
KMC1 241757Z 15006KT 26/20 A3001 RMK A01 T02590200  RH  070%=      5-min Rain = 0
KMC1 241758Z 15009KT 26/20 A3001 RMK A01 T02600201  RH  070%=      5-min Rain = 0
KMC1 241759Z 15009KT 26/20 A3001 RMK A01 T02600199  RH  069%=      5-min Rain = 0
KMC1 241800Z 16009G14KT 26/20 A3001 RMK A01 T02610199  RH  069%=      5-min Rain = 0
KMC1 241801Z 14008G13KT 26/20 A3001 RMK A01 T02610200  RH  069%=      5-min Rain = 0
KMC1 241802Z 15011G16KT 26/20 A3001 RMK A01 T02620198  RH  068%=      5-min Rain = 0
KMC1 241803Z 15009G14KT 26/20 A3001 RMK A01 T02620198  RH  068%=      5-min Rain = 0
KMC1 241804Z 13011KT 26/20 A3001 RMK A01 T02620199  RH  068%=      5-min Rain = 0
KMC1 241805Z 14012KT 26/20 A3001 RMK A01 T02630199  RH  068%=      5-min Rain = 0
KMC1 241806Z 13011G16KT 26/20 A30 RMK A01 T02640198  RH  067%=      5-min Rain = 0
KMC1 241807Z 14009G14KT 27/20 A3001 RMK A01 T02660200  RH  067%=      5-min Rain = 0
KMC1 241808Z 13008KT 27/20 A30 RMK A01 T02670200  RH  067%=      5-min Rain = 0
KMC1 241809Z 14008G14KT 27/20 A30 RMK A01 T02680201  RH  067%=      5-min Rain = 0
KMC1 241810Z 13010KT 27/20 A30 RMK A01 T02680199  RH  066%=      5-min Rain = 0
KMC1 241811Z 13009KT 27/20 A30 RMK A01 T02680200  RH  066%=      5-min Rain = 0
KMC1 241812Z 13008KT 27/20 A30 RMK A01 T02670200  RH  067%=      5-min Rain = 0
KMC1 241813Z 12012G17KT 27/20 A30 RMK A01 T02670199  RH  066%=      5-min Rain = 0
KMC1 241814Z 14011KT 27/20 A30 RMK A01 T02670200  RH  066%=      5-min Rain = 0
KMC1 241815Z 14008G13KT 27/20 A30 RMK A01 T02660199  RH  067%=      5-min Rain = 0
KMC1 241816Z 14010KT 27/20 A30 RMK A01 T02660199  RH  067%=      5-min Rain = 0
KMC1 241817Z 15011KT 27/20 A30 RMK A01 T02660200  RH  067%=      5-min Rain = 0
KMC1 241818Z 15008G13KT 27/20 A30 RMK A01 T02650199  RH  067%=      5-min Rain = 0
KMC1 241819Z 14009KT 27/20 A30 RMK A01 T02650199  RH  067%=      5-min Rain = 0
KMC1 241820Z 13011G16KT 27/20 A30 RMK A01 T02650199  RH  067%=      5-min Rain = 0
KMC1 241821Z 12010KT 27/20 A30 RMK A01 T02660199  RH  067%=      5-min Rain = 0
KMC1 241822Z 13010KT 27/20 A30 RMK A01 T02670200  RH  067%=      5-min Rain = 0
KMC1 241823Z 14007KT 27/20 A30 RMK A01 T02680201  RH  067%=      5-min Rain = 0
KMC1 241824Z 14009KT 27/20 A30 RMK A01 T02690202  RH  067%=      5-min Rain = 0
KMC1 241825Z 13013KT 27/20 A30 RMK A01 T02700200  RH  066%=      5-min Rain = 0
KMC1 241826Z 14014KT 27/20 A30 RMK A01 T02680198  RH  065%=      5-min Rain = 0
KMC1 241827Z 14011KT 27/20 A30 RMK A01 T02670197  RH  066%=      5-min Rain = 0
KMC1 241828Z 13007KT 27/20 A30 RMK A01 T02660199  RH  067%=      5-min Rain = 0
KMC1 241829Z 13009G15KT 27/20 A30 RMK A01 T02650199  RH  067%=      5-min Rain = 0
KMC1 241830Z 13011KT 26/20 A30 RMK A01 T02640198  RH  067%=      5-min Rain = 0
KMC1 241831Z 14010KT 26/20 A30 RMK A01 T02640199  RH  067%=      5-min Rain = 0
KMC1 241832Z 16009KT 26/20 A30 RMK A01 T02630198  RH  067%=      5-min Rain = 0
KMC1 241833Z 15007KT 26/20 A30 RMK A01 T02640199  RH  067%=      5-min Rain = 0
KMC1 241834Z 14007KT 26/20 A30 RMK A01 T02640199  RH  068%=      5-min Rain = 0
KMC1 241835Z 13008KT 26/20 A30 RMK A01 T02640200  RH  068%=      5-min Rain = 0
KMC1 241836Z 14010G18KT 27/20 A30 RMK A01 T02660201  RH  068%=      5-min Rain = 0
KMC1 241837Z 14012G17KT 27/20 A30 RMK A01 T02670198  RH  066%=      5-min Rain = 0
KMC1 241838Z 15011KT 27/20 A30 RMK A01 T02670198  RH  066%=      5-min Rain = 0
KMC1 241839Z 14013KT 27/20 A30 RMK A01 T02670196  RH  065%=      5-min Rain = 0
KMC1 241840Z 14008G14KT 27/20 A30 RMK A01 T02680197  RH  065%=      5-min Rain = 0
KMC1 241841Z 15010KT 27/20 A30 RMK A01 T02680199  RH  066%=      5-min Rain = 0
KMC1 241842Z 13010G16KT 27/20 A30 RMK A01 T02680198  RH  065%=      5-min Rain = 0
KMC1 241843Z 14012G18KT 27/20 A30 RMK A01 T02690197  RH  065%=      5-min Rain = 0
KMC1 241844Z 14015G22KT 27/19 A30 RMK A01 T02680194  RH  064%=      5-min Rain = 0
KMC1 241845Z 14011KT 27/19 A30 RMK A01 T02670194  RH  064%=      5-min Rain = 0
KMC1 241846Z 13012KT 27/20 A30 RMK A01 T02660195  RH  065%=      5-min Rain = 0
KMC1 241847Z 14011KT 27/19 A30 RMK A01 T02660193  RH  064%=      5-min Rain = 0
KMC1 241848Z 13013G18KT 27/19 A2999 RMK A01 T02660194  RH  064%=      5-min Rain = 0
KMC1 241849Z 14008KT 27/19 A30 RMK A01 T02670194  RH  064%=      5-min Rain = 0
KMC1 241850Z 14011G17KT 27/19 A30 RMK A01 T02670194  RH  065%=      5-min Rain = 0
KMC1 241851Z 15008KT 27/20 A30 RMK A01 T02680195  RH  064%=      5-min Rain = 0
KMC1 241852Z 14011KT 27/20 A30 RMK A01 T02690197  RH  065%=      5-min Rain = 0
KMC1 241853Z 16010G15KT 27/20 A30 RMK A01 T02710196  RH  064%=      5-min Rain = 0
KMC1 241854Z 16013KT 27/20 A30 RMK A01 T02710195  RH  063%=      5-min Rain = 0
KMC1 241855Z 14011G16KT 27/20 A30 RMK A01 T02720195  RH  063%=      5-min Rain = 0
KMC1 241856Z 15008KT 27/20 A30 RMK A01 T02720196  RH  063%=      5-min Rain = 0
KMC1 241857Z 16009G14KT 27/20 A30 RMK A01 T02720197  RH  063%=      5-min Rain = 0
KMC1 241858Z 15011KT 27/20 A30 RMK A01 T02720198  RH  064%=      5-min Rain = 0
KMC1 241859Z 13012G17KT 27/20 A30 RMK A01 T02720197  RH  064%=      5-min Rain = 0
KMC1 241900Z 14014KT 27/20 A30 RMK A01 T02720195  RH  063%=      5-min Rain = 0
KMC1 241901Z 14011KT 27/20 A2999 RMK A01 T02710196  RH  063%=      5-min Rain = 0
KMC1 241902Z 14011G16KT 27/20 A2999 RMK A01 T02700195  RH  064%=      5-min Rain = 0
KMC1 241903Z 14008KT 27/20 A2999 RMK A01 T02690198  RH  065%=      5-min Rain = 0
KMC1 241904Z 13010KT 27/20 A2999 RMK A01 T02690198  RH  065%=      5-min Rain = 0
KMC1 241905Z 13009KT 27/20 A2999 RMK A01 T02690198  RH  065%=      5-min Rain = 0
KMC1 241906Z 13012KT 27/20 A2999 RMK A01 T02690198  RH  065%=      5-min Rain = 0
KMC1 241907Z 13012KT 27/20 A2999 RMK A01 T02680196  RH  065%=      5-min Rain = 0
KMC1 241908Z 13010KT 27/20 A2999 RMK A01 T02680196  RH  065%=      5-min Rain = 0
KMC1 241909Z 13008KT 27/20 A2999 RMK A01 T02670199  RH  066%=      5-min Rain = 0
KMC1 241910Z 13007KT 27/20 A2999 RMK A01 T02680200  RH  067%=      5-min Rain = 0
KMC1 241911Z 15009KT 27/20 A2999 RMK A01 T02680198  RH  065%=      5-min Rain = 0
KMC1 241912Z 14007KT 27/20 A2999 RMK A01 T02680195  RH  064%=      5-min Rain = 0
KMC1 241913Z 13010KT 27/20 A2999 RMK A01 T02690196  RH  064%=      5-min Rain = 0
KMC1 241914Z 14011KT 27/20 A2999 RMK A01 T02690197  RH  065%=      5-min Rain = 0
KMC1 241915Z 15010G15KT 27/20 A2999 RMK A01 T02690196  RH  064%=      5-min Rain = 0
KMC1 241916Z 15011KT 27/20 A2999 RMK A01 T02690196  RH  064%=      5-min Rain = 0
KMC1 241917Z 15010KT 27/20 A2999 RMK A01 T02680197  RH  065%=      5-min Rain = 0
KMC1 241918Z 14009KT 27/20 A2999 RMK A01 T02690197  RH  065%=      5-min Rain = 0
KMC1 241919Z 14006KT 27/20 A2999 RMK A01 T02690197  RH  065%=      5-min Rain = 0
KMC1 241920Z 15007G12KT 27/20 A2999 RMK A01 T02690200  RH  066%=      5-min Rain = 0
KMC1 241921Z 14011KT 27/20 A2999 RMK A01 T02700199  RH  065%=      5-min Rain = 0
KMC1 241922Z 13013G20KT 27/20 A2999 RMK A01 T02700197  RH  065%=      5-min Rain = 0
KMC1 241923Z 14011KT 27/20 A2999 RMK A01 T02700195  RH  064%=      5-min Rain = 0
KMC1 241924Z 14011KT 27/20 A2999 RMK A01 T02690195  RH  064%=      5-min Rain = 0
KMC1 241925Z 13011G17KT 27/19 A2999 RMK A01 T02680194  RH  064%=      5-min Rain = 0
KMC1 241926Z 13011G16KT 27/19 A2999 RMK A01 T02670194  RH  064%=      5-min Rain = 0
KMC1 241927Z 13010G15KT 27/19 A2999 RMK A01 T02670193  RH  064%=      5-min Rain = 0
KMC1 241928Z 14009KT 27/20 A2999 RMK A01 T02660195  RH  065%=      5-min Rain = 0
KMC1 241929Z 13012KT 27/19 A2999 RMK A01 T02660194  RH  064%=      5-min Rain = 0
KMC1 241930Z 13012KT 27/19 A2999 RMK A01 T02660194  RH  064%=      5-min Rain = 0
KMC1 241931Z 13013KT 27/19 A2999 RMK A01 T02660193  RH  064%=      5-min Rain = 0
KMC1 241932Z 13013G19KT 27/19 A2998 RMK A01 T02670193  RH  064%=      5-min Rain = 0
KMC1 241933Z 13010KT 27/19 A2998 RMK A01 T02670194  RH  064%=      5-min Rain = 0
KMC1 241934Z 13015KT 27/19 A2998 RMK A01 T02680193  RH  064%=      5-min Rain = 0
KMC1 241935Z 13016KT 27/19 A2998 RMK A01 T02690193  RH  063%=      5-min Rain = 0
KMC1 241936Z 13017KT 27/19 A2998 RMK A01 T02690193  RH  063%=      5-min Rain = 0
KMC1 241937Z 14012KT 27/19 A2998 RMK A01 T02690194  RH  064%=      5-min Rain = 0
KMC1 241938Z 15009KT 27/20 A2998 RMK A01 T02690195  RH  064%=      5-min Rain = 0
KMC1 241939Z 13008KT 27/20 A2998 RMK A01 T02700198  RH  064%=      5-min Rain = 0
KMC1 241940Z 14011KT 27/20 A2998 RMK A01 T02710196  RH  064%=      5-min Rain = 0
KMC1 241941Z 14011G17KT 27/19 A2998 RMK A01 T02710193  RH  063%=      5-min Rain = 0
KMC1 241942Z 13010KT 27/19 A2998 RMK A01 T02710194  RH  063%=      5-min Rain = 0
KMC1 241943Z 13010G16KT 27/20 A2998 RMK A01 T02710195  RH  063%=      5-min Rain = 0
KMC1 241944Z 14012KT 27/19 A2998 RMK A01 T02710194  RH  063%=      5-min Rain = 0
KMC1 241945Z 14013G18KT 27/19 A2998 RMK A01 T02700193  RH  062%=      5-min Rain = 0
KMC1 241946Z 13010KT 27/19 A2998 RMK A01 T02700194  RH  063%=      5-min Rain = 0
KMC1 241947Z 14008G13KT 27/20 A2998 RMK A01 T02700195  RH  063%=      5-min Rain = 0
KMC1 241948Z 13010KT 27/20 A2998 RMK A01 T02700196  RH  064%=      5-min Rain = 0
KMC1 241949Z 14012KT 27/19 A2998 RMK A01 T02700194  RH  063%=      5-min Rain = 0
KMC1 241950Z 14010G16KT 27/19 A2998 RMK A01 T02700193  RH  063%=      5-min Rain = 0
KMC1 241951Z 14011KT 27/19 A2998 RMK A01 T02710193  RH  062%=      5-min Rain = 0
KMC1 241952Z 14010G15KT 27/19 A2998 RMK A01 T02700192  RH  062%=      5-min Rain = 0
KMC1 241953Z 15010KT 27/19 A2998 RMK A01 T02700192  RH  062%=      5-min Rain = 0
KMC1 241954Z 14010G15KT 27/19 A2998 RMK A01 T02710193  RH  063%=      5-min Rain = 0
KMC1 241955Z 16009G14KT 27/19 A2998 RMK A01 T02720194  RH  063%=      5-min Rain = 0
KMC1 241956Z 15011G16KT 27/19 A2998 RMK A01 T02730194  RH  062%=      5-min Rain = 0
KMC1 241957Z 14011KT 27/19 A2997 RMK A01 T02740193  RH  061%=      5-min Rain = 0
KMC1 241958Z 14010KT 28/19 A2997 RMK A01 T02750193  RH  061%=      5-min Rain = 0
KMC1 241959Z 14010KT 28/20 A2997 RMK A01 T02750195  RH  062%=      5-min Rain = 0
KMC1 242000Z 14009G16KT 28/20 A2997 RMK A01 T02750196  RH  062%=      5-min Rain = 0
KMC1 242001Z 15010G15KT 28/19 A2997 RMK A01 T02750192  RH  060%=      5-min Rain = 0
KMC1 242002Z 14013G20KT 28/19 A2997 RMK A01 T02750190  RH  060%=      5-min Rain = 0
KMC1 242003Z 13014G19KT 28/19 A2997 RMK A01 T02760190  RH  059%=      5-min Rain = 0
KMC1 242004Z 13011KT 28/19 A2997 RMK A01 T02770191  RH  059%=      5-min Rain = 0
KMC1 242005Z 14011KT 28/19 A2997 RMK A01 T02780194  RH  060%=      5-min Rain = 0
KMC1 242006Z 15010KT 28/20 A2997 RMK A01 T02810195  RH  060%=      5-min Rain = 0
KMC1 242007Z 16011G17KT 28/20 A2997 RMK A01 T02830196  RH  059%=      5-min Rain = 0
KMC1 242008Z 16012G17KT 29/19 A2997 RMK A01 T02850194  RH  058%=      5-min Rain = 0
KMC1 242009Z 15014G19KT 28/19 A2997 RMK A01 T02840191  RH  057%=      5-min Rain = 0
KMC1 242010Z 15013G18KT 28/19 A2997 RMK A01 T02820191  RH  058%=      5-min Rain = 0
KMC1 242011Z 13011KT 28/19 A2997 RMK A01 T02810193  RH  059%=      5-min Rain = 0
KMC1 242012Z 13013G18KT 28/19 A2997 RMK A01 T02820194  RH  059%=      5-min Rain = 0
KMC1 242013Z 14011KT 28/19 A2997 RMK A01 T02830194  RH  059%=      5-min Rain = 0
KMC1 242014Z 12011KT 29/20 A2997 RMK A01 T02850196  RH  059%=      5-min Rain = 0
KMC1 242015Z 13010G15KT 29/20 A2997 RMK A01 T02850196  RH  058%=      5-min Rain = 0
KMC1 242016Z 14009G16KT 29/20 A2997 RMK A01 T02850199  RH  059%=      5-min Rain = 0
KMC1 242017Z 13015KT 29/19 A2997 RMK A01 T02860193  RH  057%=      5-min Rain = 0
KMC1 242018Z 12013G19KT 28/19 A2997 RMK A01 T02840190  RH  057%=      5-min Rain = 0
KMC1 242019Z 13014G20KT 28/19 A2997 RMK A01 T02840193  RH  058%=      5-min Rain = 0
KMC1 242020Z 13013G18KT 29/19 A2997 RMK A01 T02850193  RH  058%=      5-min Rain = 0
KMC1 242021Z 13012G17KT 29/20 A2997 RMK A01 T02860195  RH  058%=      5-min Rain = 0
KMC1 242022Z 14011G16KT 29/20 A2997 RMK A01 T02860195  RH  058%=      5-min Rain = 0
KMC1 242023Z 14011G18KT 29/20 A2997 RMK A01 T02860196  RH  058%=      5-min Rain = 0
KMC1 242024Z 15013KT 29/20 A2997 RMK A01 T02860195  RH  058%=      5-min Rain = 0
KMC1 242025Z 14013KT 29/19 A2997 RMK A01 T02860193  RH  057%=      5-min Rain = 0
KMC1 242026Z 16011G17KT 29/20 A2997 RMK A01 T02850195  RH  058%=      5-min Rain = 0
KMC1 242027Z 16013G20KT 29/19 A2997 RMK A01 T02850194  RH  058%=      5-min Rain = 0
KMC1 242028Z 15010G18KT 29/19 A2997 RMK A01 T02850193  RH  057%=      5-min Rain = 0
KMC1 242029Z 15013G21KT 28/19 A2997 RMK A01 T02840193  RH  058%=      5-min Rain = 0
KMC1 242030Z 15014G19KT 28/19 A2997 RMK A01 T02840190  RH  057%=      5-min Rain = 0
KMC1 242031Z 14014KT 28/19 A2997 RMK A01 T02820189  RH  057%=      5-min Rain = 0
KMC1 242032Z 15013KT 28/19 A2996 RMK A01 T02820188  RH  057%=      5-min Rain = 0
KMC1 242033Z 15008G14KT 28/19 A2996 RMK A01 T02810189  RH  058%=      5-min Rain = 0
KMC1 242034Z 15008G14KT 28/19 A2996 RMK A01 T02810193  RH  059%=      5-min Rain = 0
KMC1 242035Z 15012G18KT 28/19 A2996 RMK A01 T02840193  RH  058%=      5-min Rain = 0
KMC1 242036Z 16011G16KT 29/20 A2996 RMK A01 T02850195  RH  058%=      5-min Rain = 0
KMC1 242037Z 15009G16KT 29/20 A2996 RMK A01 T02880196  RH  057%=      5-min Rain = 0
KMC1 242038Z 14009G14KT 29/20 A2996 RMK A01 T02880195  RH  057%=      5-min Rain = 0
KMC1 242039Z 14011G17KT 29/20 A2996 RMK A01 T02890197  RH  058%=      5-min Rain = 0
KMC1 242040Z 15013G21KT 29/20 A2996 RMK A01 T02890195  RH  057%=      5-min Rain = 0
KMC1 242041Z 13015G21KT 29/19 A2996 RMK A01 T02870193  RH  057%=      5-min Rain = 0
KMC1 242042Z 12014G21KT 28/19 A2996 RMK A01 T02840192  RH  057%=      5-min Rain = 0
KMC1 242043Z 13014KT 28/19 A2996 RMK A01 T02820192  RH  058%=      5-min Rain = 0
KMC1 242044Z 14011KT 28/19 A2996 RMK A01 T02810194  RH  059%=      5-min Rain = 0
KMC1 242045Z 14010G15KT 28/20 A2996 RMK A01 T02810195  RH  060%=      5-min Rain = 0
KMC1 242046Z 14011KT 28/20 A2996 RMK A01 T02810195  RH  060%=      5-min Rain = 0
KMC1 242047Z 14010KT 28/19 A2996 RMK A01 T02800194  RH  059%=      5-min Rain = 0
KMC1 242048Z 12014KT 28/19 A2996 RMK A01 T02810194  RH  059%=      5-min Rain = 0
KMC1 242049Z 13013KT 28/19 A2996 RMK A01 T02800192  RH  059%=      5-min Rain = 0
KMC1 242050Z 14010KT 28/19 A2996 RMK A01 T02790194  RH  060%=      5-min Rain = 0
KMC1 242051Z 14011G18KT 28/20 A2996 RMK A01 T02790196  RH  060%=      5-min Rain = 0
KMC1 242052Z 14013KT 28/19 A2996 RMK A01 T02790192  RH  059%=      5-min Rain = 0
KMC1 242053Z 13012G17KT 28/19 A2996 RMK A01 T02790193  RH  059%=      5-min Rain = 0
KMC1 242054Z 14016KT 28/19 A2996 RMK A01 T02790193  RH  060%=      5-min Rain = 0
KMC1 242055Z 13012G22KT 28/19 A2996 RMK A01 T02790192  RH  059%=      5-min Rain = 0
KMC1 242056Z 12015G20KT 28/19 A2995 RMK A01 T02810192  RH  058%=      5-min Rain = 0
KMC1 242057Z 12014G20KT 28/19 A2995 RMK A01 T02820192  RH  058%=      5-min Rain = 0
KMC1 242058Z 12012KT 28/19 A2995 RMK A01 T02820191  RH  058%=      5-min Rain = 0
KMC1 242059Z 13011G17KT 28/19 A2995 RMK A01 T02810193  RH  059%=      5-min Rain = 0
KMC1 242100Z 14013G18KT 28/19 A2996 RMK A01 T02800192  RH  059%=      5-min Rain = 0
KMC1 242101Z 14011G16KT 28/19 A2996 RMK A01 T02800193  RH  059%=      5-min Rain = 0
KMC1 242102Z 14011KT 28/19 A2996 RMK A01 T02800193  RH  059%=      5-min Rain = 0
KMC1 242103Z 15009KT 28/19 A2996 RMK A01 T02810193  RH  059%=      5-min Rain = 0
KMC1 242104Z 15010G15KT 28/19 A2996 RMK A01 T02810193  RH  059%=      5-min Rain = 0
KMC1 242105Z 13008KT 28/19 A2996 RMK A01 T02820194  RH  059%=      5-min Rain = 0
KMC1 242106Z 13008KT 28/19 A2996 RMK A01 T02830194  RH  058%=      5-min Rain = 0
KMC1 242107Z 14006G11KT 28/20 A2996 RMK A01 T02840197  RH  059%=      5-min Rain = 0
KMC1 242108Z 14009G14KT 29/20 A2996 RMK A01 T02850196  RH  058%=      5-min Rain = 0
KMC1 242109Z 14010KT 29/19 A2996 RMK A01 T02860189  RH  056%=      5-min Rain = 0
KMC1 242110Z 13012KT 29/19 A2996 RMK A01 T02860190  RH  056%=      5-min Rain = 0
KMC1 242111Z 15012KT 29/19 A2996 RMK A01 T02850189  RH  056%=      5-min Rain = 0
KMC1 242112Z 16012G18KT 28/19 A2996 RMK A01 T02840190  RH  057%=      5-min Rain = 0
KMC1 242113Z 15011G18KT 28/19 A2996 RMK A01 T02840189  RH  057%=      5-min Rain = 0
KMC1 242114Z 15010KT 28/19 A2996 RMK A01 T02830189  RH  057%=      5-min Rain = 0
KMC1 242115Z 16015G23KT 28/19 A2996 RMK A01 T02820187  RH  056%=      5-min Rain = 0
KMC1 242116Z 15009G14KT 28/19 A2996 RMK A01 T02810187  RH  057%=      5-min Rain = 0
KMC1 242117Z 15009G14KT 28/19 A2996 RMK A01 T02800189  RH  058%=      5-min Rain = 0
KMC1 242118Z 16008KT 28/19 A2996 RMK A01 T02800190  RH  058%=      5-min Rain = 0
KMC1 242119Z 15010G15KT 28/19 A2996 RMK A01 T02800191  RH  059%=      5-min Rain = 0
KMC1 242120Z 15012G17KT 28/19 A2995 RMK A01 T02790190  RH  058%=      5-min Rain = 0
KMC1 242121Z 15012KT 28/19 A2995 RMK A01 T02780190  RH  059%=      5-min Rain = 0
KMC1 242122Z 15009KT 28/19 A2995 RMK A01 T02780189  RH  058%=      5-min Rain = 0
KMC1 242123Z 14010G16KT 28/19 A2995 RMK A01 T02780190  RH  059%=      5-min Rain = 0
KMC1 242124Z 15010KT 28/19 A2995 RMK A01 T02780190  RH  059%=      5-min Rain = 0
KMC1 242125Z 16006KT 28/19 A2995 RMK A01 T02790192  RH  059%=      5-min Rain = 0
KMC1 242126Z 16008KT 28/19 A2995 RMK A01 T02790193  RH  060%=      5-min Rain = 0
KMC1 242127Z 16007KT 28/19 A2995 RMK A01 T02810192  RH  059%=      5-min Rain = 0
KMC1 242128Z 15007KT 28/20 A2995 RMK A01 T02820196  RH  060%=      5-min Rain = 0
KMC1 242129Z 15010KT 28/20 A2995 RMK A01 T02830195  RH  059%=      5-min Rain = 0
KMC1 242130Z 15009G14KT 28/19 A2995 RMK A01 T02830194  RH  058%=      5-min Rain = 0
KMC1 242131Z 16010G15KT 28/20 A2995 RMK A01 T02840196  RH  059%=      5-min Rain = 0
KMC1 242132Z 16011G17KT 29/19 A2995 RMK A01 T02850191  RH  057%=      5-min Rain = 0
KMC1 242133Z 13015KT 29/19 A2995 RMK A01 T02850189  RH  056%=      5-min Rain = 0
KMC1 242134Z 15009G15KT 29/19 A2995 RMK A01 T02850188  RH  056%=      5-min Rain = 0
KMC1 242135Z 16010G15KT 29/19 A2995 RMK A01 T02850191  RH  057%=      5-min Rain = 0
KMC1 242136Z 16011G18KT 29/19 A2995 RMK A01 T02850189  RH  056%=      5-min Rain = 0
KMC1 242137Z 17012G17KT 28/19 A2995 RMK A01 T02840187  RH  056%=      5-min Rain = 0
KMC1 242138Z 16012G18KT 28/19 A2995 RMK A01 T02830187  RH  056%=      5-min Rain = 0
KMC1 242139Z 16013KT 28/19 A2995 RMK A01 T02820185  RH  056%=      5-min Rain = 0
KMC1 242140Z 15009G14KT 28/19 A2995 RMK A01 T02820186  RH  056%=      5-min Rain = 0
KMC1 242141Z 15009G15KT 28/19 A2995 RMK A01 T02810189  RH  057%=      5-min Rain = 0
KMC1 242142Z 16011KT 28/19 A2995 RMK A01 T02810188  RH  057%=      5-min Rain = 0
KMC1 242143Z 16008G14KT 28/19 A2995 RMK A01 T02810188  RH  057%=      5-min Rain = 0
KMC1 242144Z 16010KT 28/19 A2995 RMK A01 T02810191  RH  058%=      5-min Rain = 0
KMC1 242145Z 16009KT 28/19 A2994 RMK A01 T02810188  RH  057%=      5-min Rain = 0
KMC1 242146Z 16009KT 28/19 A2994 RMK A01 T02810189  RH  058%=      5-min Rain = 0
KMC1 242147Z 16011KT 28/19 A2994 RMK A01 T02800189  RH  058%=      5-min Rain = 0
KMC1 242148Z 15009KT 28/19 A2994 RMK A01 T02810190  RH  058%=      5-min Rain = 0
KMC1 242149Z 15009G14KT 28/19 A2994 RMK A01 T02800189  RH  058%=      5-min Rain = 0
KMC1 242150Z 14011KT 28/19 A2994 RMK A01 T02810188  RH  057%=      5-min Rain = 0
KMC1 242151Z 15007KT 28/19 A2994 RMK A01 T02810189  RH  057%=      5-min Rain = 0
KMC1 242152Z 15008G13KT 28/19 A2994 RMK A01 T02820191  RH  058%=      5-min Rain = 0
KMC1 242153Z 14007G14KT 28/19 A2994 RMK A01 T02820190  RH  057%=      5-min Rain = 0
KMC1 242154Z 14008KT 28/19 A2994 RMK A01 T02830190  RH  057%=      5-min Rain = 0
KMC1 242155Z 14008KT 28/19 A2994 RMK A01 T02830190  RH  057%=      5-min Rain = 0
KMC1 242156Z 14006G11KT 28/19 A2994 RMK A01 T02830190  RH  057%=      5-min Rain = 0
KMC1 242157Z 14006G11KT 28/19 A2994 RMK A01 T02830192  RH  058%=      5-min Rain = 0
KMC1 242158Z 14007G12KT 28/19 A2994 RMK A01 T02830192  RH  058%=      5-min Rain = 0
KMC1 242159Z 13008KT 28/19 A2994 RMK A01 T02830193  RH  058%=      5-min Rain = 0
KMC1 242200Z 13009KT 28/19 A2994 RMK A01 T02830194  RH  058%=      5-min Rain = 0
KMC1 242201Z 13011G16KT 28/19 A2994 RMK A01 T02830192  RH  058%=      5-min Rain = 0
KMC1 242202Z 13010KT 28/19 A2994 RMK A01 T02830193  RH  058%=      5-min Rain = 0
KMC1 242203Z 13008KT 28/19 A2994 RMK A01 T02820193  RH  058%=      5-min Rain = 0
KMC1 242204Z 12010G16KT 28/20 A2994 RMK A01 T02820195  RH  059%=      5-min Rain = 0
KMC1 242205Z 13012KT 28/19 A2994 RMK A01 T02820193  RH  059%=      5-min Rain = 0
KMC1 242206Z 13010KT 28/19 A2994 RMK A01 T02810193  RH  059%=      5-min Rain = 0
KMC1 242207Z 14011KT 28/19 A2994 RMK A01 T02810192  RH  058%=      5-min Rain = 0
KMC1 242208Z 14010G15KT 28/19 A2994 RMK A01 T02810190  RH  058%=      5-min Rain = 0
KMC1 242209Z 14010KT 28/19 A2994 RMK A01 T02810186  RH  056%=      5-min Rain = 0
KMC1 242210Z 16010KT 28/19 A2994 RMK A01 T02810185  RH  056%=      5-min Rain = 0
KMC1 242211Z 14005KT 28/19 A2994 RMK A01 T02810187  RH  057%=      5-min Rain = 0
KMC1 242212Z 14004KT 28/19 A2994 RMK A01 T02810190  RH  058%=      5-min Rain = 0
KMC1 242213Z 14007KT 28/19 A2994 RMK A01 T02810192  RH  058%=      5-min Rain = 0
KMC1 242214Z 14010G15KT 28/19 A2994 RMK A01 T02810190  RH  058%=      5-min Rain = 0
KMC1 242215Z 14012KT 28/19 A2994 RMK A01 T02800189  RH  058%=      5-min Rain = 0
KMC1 242216Z 13009KT 28/19 A2994 RMK A01 T02800190  RH  058%=      5-min Rain = 0
KMC1 242217Z 14007KT 28/19 A2994 RMK A01 T02800192  RH  059%=      5-min Rain = 0
KMC1 242218Z 13009KT 28/19 A2994 RMK A01 T02800192  RH  059%=      5-min Rain = 0
KMC1 242219Z 13009KT 28/19 A2994 RMK A01 T02800191  RH  058%=      5-min Rain = 0
KMC1 242220Z 14008KT 28/19 A2994 RMK A01 T02790191  RH  059%=      5-min Rain = 0
KMC1 242221Z 14008KT 28/19 A2994 RMK A01 T02790191  RH  058%=      5-min Rain = 0
KMC1 242222Z 14009KT 28/19 A2994 RMK A01 T02790191  RH  058%=      5-min Rain = 0
KMC1 242223Z 13009KT 28/19 A2994 RMK A01 T02790189  RH  058%=      5-min Rain = 0
KMC1 242224Z 14011KT 28/19 A2994 RMK A01 T02800189  RH  058%=      5-min Rain = 0
KMC1 242225Z 13008KT 28/19 A2994 RMK A01 T02790190  RH  058%=      5-min Rain = 0
KMC1 242226Z 13009KT 28/19 A2994 RMK A01 T02800191  RH  059%=      5-min Rain = 0
KMC1 242227Z 13011KT 28/19 A2994 RMK A01 T02790191  RH  059%=      5-min Rain = 0
KMC1 242228Z 14011KT 28/19 A2994 RMK A01 T02790190  RH  059%=      5-min Rain = 0
KMC1 242229Z 13009G14KT 28/19 A2994 RMK A01 T02790191  RH  059%=      5-min Rain = 0
KMC1 242230Z 13008KT 28/19 A2994 RMK A01 T02780191  RH  059%=      5-min Rain = 0
KMC1 242231Z 13007KT 28/19 A2994 RMK A01 T02780193  RH  060%=      5-min Rain = 0
KMC1 242232Z 13009KT 28/19 A2994 RMK A01 T02770193  RH  060%=      5-min Rain = 0
KMC1 242233Z 13008KT 28/19 A2994 RMK A01 T02770193  RH  060%=      5-min Rain = 0
KMC1 242234Z 12009G14KT 28/19 A2994 RMK A01 T02760193  RH  060%=      5-min Rain = 0
KMC1 242235Z 12010KT 28/19 A2994 RMK A01 T02760193  RH  061%=      5-min Rain = 0
KMC1 242236Z 11008KT 28/19 A2994 RMK A01 T02760194  RH  061%=      5-min Rain = 0
KMC1 242237Z 12008KT 28/19 A2994 RMK A01 T02750194  RH  061%=      5-min Rain = 0
KMC1 242238Z 12009KT 28/20 A2994 RMK A01 T02750195  RH  062%=      5-min Rain = 0
KMC1 242239Z 12009KT 28/20 A2994 RMK A01 T02750195  RH  062%=      5-min Rain = 0
KMC1 242240Z 11008KT 27/20 A2994 RMK A01 T02740195  RH  062%=      5-min Rain = 0
KMC1 242241Z 12008KT 28/20 A2994 RMK A01 T02750196  RH  062%=      5-min Rain = 0
KMC1 242242Z 11008KT 27/20 A2994 RMK A01 T02740196  RH  062%=      5-min Rain = 0
KMC1 242243Z 13009KT 28/20 A2994 RMK A01 T02750196  RH  062%=      5-min Rain = 0
KMC1 242244Z 12011KT 28/19 A2994 RMK A01 T02750193  RH  061%=      5-min Rain = 0
KMC1 242245Z 12007G12KT 28/19 A2993 RMK A01 T02750193  RH  061%=      5-min Rain = 0
KMC1 242246Z 12007KT 27/20 A2993 RMK A01 T02740195  RH  062%=      5-min Rain = 0
KMC1 242247Z 14007KT 28/20 A2993 RMK A01 T02750196  RH  062%=      5-min Rain = 0
KMC1 242248Z 13007KT 27/20 A2993 RMK A01 T02740195  RH  062%=      5-min Rain = 0
KMC1 242249Z 14009KT 28/19 A2993 RMK A01 T02750194  RH  061%=      5-min Rain = 0
KMC1 242250Z 13007KT 28/19 A2993 RMK A01 T02750193  RH  061%=      5-min Rain = 0
KMC1 242251Z 13007KT 27/19 A2993 RMK A01 T02740193  RH  061%=      5-min Rain = 0
KMC1 242252Z 12006KT 27/19 A2993 RMK A01 T02740193  RH  061%=      5-min Rain = 0
KMC1 242253Z 13006KT 27/20 A2994 RMK A01 T02740195  RH  062%=      5-min Rain = 0
KMC1 242254Z 13007KT 27/20 A2994 RMK A01 T02740195  RH  062%=      5-min Rain = 0
KMC1 242255Z 14007KT 27/19 A2994 RMK A01 T02740193  RH  061%=      5-min Rain = 0
KMC1 242256Z 13006KT 27/19 A2994 RMK A01 T02740194  RH  061%=      5-min Rain = 0
KMC1 242257Z 13008KT 27/19 A2994 RMK A01 T02740194  RH  062%=      5-min Rain = 0
KMC1 242258Z 13007KT 27/19 A2993 RMK A01 T02740191  RH  061%=      5-min Rain = 0
KMC1 242259Z 13006KT 27/19 A2993 RMK A01 T02740194  RH  062%=      5-min Rain = 0
KMC1 242300Z 12005KT 27/20 A2993 RMK A01 T02740195  RH  062%=      5-min Rain = 0
KMC1 242301Z 13007KT 27/20 A2993 RMK A01 T02740196  RH  062%=      5-min Rain = 0
KMC1 242302Z 12006KT 27/20 A2993 RMK A01 T02730195  RH  062%=      5-min Rain = 0
KMC1 242303Z 12006KT 27/20 A2993 RMK A01 T02740196  RH  063%=      5-min Rain = 0
KMC1 242304Z 13006KT 27/20 A2993 RMK A01 T02730196  RH  063%=      5-min Rain = 0
KMC1 242305Z 12006KT 27/20 A2993 RMK A01 T02730196  RH  063%=      5-min Rain = 0
KMC1 242306Z 13007KT 27/20 A2993 RMK A01 T02730196  RH  063%=      5-min Rain = 0
KMC1 242307Z 13009KT 27/20 A2993 RMK A01 T02730195  RH  062%=      5-min Rain = 0
KMC1 242308Z 13009KT 27/20 A2993 RMK A01 T02730195  RH  062%=      5-min Rain = 0
KMC1 242309Z 13008KT 27/20 A2993 RMK A01 T02730195  RH  062%=      5-min Rain = 0
KMC1 242310Z 13011KT 27/19 A2993 RMK A01 T02730194  RH  062%=      5-min Rain = 0
KMC1 242311Z 13008KT 27/19 A2993 RMK A01 T02730194  RH  062%=      5-min Rain = 0
KMC1 242312Z 13007KT 27/19 A2993 RMK A01 T02730194  RH  062%=      5-min Rain = 0
KMC1 242313Z 13007KT 27/20 A2993 RMK A01 T02730195  RH  062%=      5-min Rain = 0
KMC1 242314Z 13007KT 27/19 A2993 RMK A01 T02720194  RH  062%=      5-min Rain = 0
KMC1 242315Z 13006KT 27/19 A2993 RMK A01 T02720194  RH  062%=      5-min Rain = 0
KMC1 242316Z 13006KT 27/20 A2993 RMK A01 T02720195  RH  063%=      5-min Rain = 0
KMC1 242317Z 12007KT 27/20 A2993 RMK A01 T02720195  RH  063%=      5-min Rain = 0
KMC1 242318Z 13007KT 27/19 A2993 RMK A01 T02710193  RH  062%=      5-min Rain = 0
KMC1 242319Z 13008G14KT 27/19 A2993 RMK A01 T02710193  RH  062%=      5-min Rain = 0
KMC1 242320Z 13007KT 27/19 A2993 RMK A01 T02710192  RH  062%=      5-min Rain = 0
KMC1 242321Z 12008KT 27/19 A2993 RMK A01 T02710192  RH  062%=      5-min Rain = 0
KMC1 242322Z 13007KT 27/19 A2993 RMK A01 T02710192  RH  062%=      5-min Rain = 0
KMC1 242323Z 13007G13KT 27/19 A2993 RMK A01 T02710191  RH  062%=      5-min Rain = 0
KMC1 242324Z 12010KT 27/19 A2993 RMK A01 T02710190  RH  061%=      5-min Rain = 0
KMC1 242325Z 12008KT 27/19 A2993 RMK A01 T02710189  RH  061%=      5-min Rain = 0
KMC1 242326Z 12008KT 27/19 A2993 RMK A01 T02710191  RH  061%=      5-min Rain = 0
KMC1 242327Z 13009KT 27/19 A2993 RMK A01 T02710189  RH  061%=      5-min Rain = 0
KMC1 242328Z 13008KT 27/19 A2993 RMK A01 T02710190  RH  061%=      5-min Rain = 0
KMC1 242329Z 13006KT 27/19 A2993 RMK A01 T02710190  RH  061%=      5-min Rain = 0
KMC1 242330Z 13007KT 27/19 A2993 RMK A01 T02710191  RH  062%=      5-min Rain = 0
KMC1 242331Z 13008KT 27/19 A2993 RMK A01 T02700191  RH  062%=      5-min Rain = 0
KMC1 242332Z 13008KT 27/19 A2993 RMK A01 T02710190  RH  062%=      5-min Rain = 0
KMC1 242333Z 12009KT 27/19 A2993 RMK A01 T02700188  RH  061%=      5-min Rain = 0
KMC1 242334Z 13007KT 27/19 A2993 RMK A01 T02700189  RH  061%=      5-min Rain = 0
KMC1 242335Z 13007KT 27/19 A2993 RMK A01 T02710190  RH  061%=      5-min Rain = 0
KMC1 242336Z 14006KT 27/19 A2993 RMK A01 T02700190  RH  061%=      5-min Rain = 0
KMC1 242337Z 13008KT 27/19 A2993 RMK A01 T02700190  RH  061%=      5-min Rain = 0
KMC1 242338Z 13008KT 27/19 A2993 RMK A01 T02700190  RH  062%=      5-min Rain = 0
KMC1 242339Z 13008G13KT 27/19 A2993 RMK A01 T02700190  RH  061%=      5-min Rain = 0
KMC1 242340Z 13007KT 27/19 A2993 RMK A01 T02700190  RH  061%=      5-min Rain = 0
KMC1 242341Z 12007KT 27/19 A2993 RMK A01 T02700190  RH  062%=      5-min Rain = 0
KMC1 242342Z 13006KT 27/19 A2993 RMK A01 T02700191  RH  062%=      5-min Rain = 0
KMC1 242343Z 13007KT 27/19 A2993 RMK A01 T02700191  RH  062%=      5-min Rain = 0
KMC1 242344Z 13005KT 27/19 A2994 RMK A01 T02690192  RH  062%=      5-min Rain = 0
KMC1 242345Z 13007KT 27/19 A2994 RMK A01 T02690191  RH  062%=      5-min Rain = 0
KMC1 242346Z 14005KT 27/19 A2994 RMK A01 T02690192  RH  063%=      5-min Rain = 0
KMC1 242347Z 13008KT 27/19 A2994 RMK A01 T02690191  RH  062%=      5-min Rain = 0
KMC1 242348Z 14008KT 27/19 A2994 RMK A01 T02690191  RH  062%=      5-min Rain = 0
KMC1 242349Z 13008KT 27/19 A2994 RMK A01 T02690191  RH  062%=      5-min Rain = 0
KMC1 242350Z 13008KT 27/19 A2994 RMK A01 T02690190  RH  062%=      5-min Rain = 0
KMC1 242351Z 14009KT 27/19 A2994 RMK A01 T02690190  RH  062%=      5-min Rain = 0
KMC1 242352Z 14008KT 27/19 A2994 RMK A01 T02690190  RH  062%=      5-min Rain = 0
KMC1 242353Z 14006KT 27/19 A2994 RMK A01 T02690190  RH  062%=      5-min Rain = 0
KMC1 242354Z 13007KT 27/19 A2994 RMK A01 T02690191  RH  062%=      5-min Rain = 0
KMC1 242355Z 13006KT 27/19 A2994 RMK A01 T02690192  RH  063%=      5-min Rain = 0
KMC1 242356Z 13007KT 27/19 A2994 RMK A01 T02690192  RH  063%=      5-min Rain = 0
KMC1 242357Z 12006KT 27/19 A2994 RMK A01 T02690192  RH  063%=      5-min Rain = 0
KMC1 242358Z 13007KT 27/19 A2993 RMK A01 T02690192  RH  063%=      5-min Rain = 0
KMC1 242359Z 13006KT 27/19 A2993 RMK A01 T02680192  RH  063%=      5-min Rain = 0
KMC1 250000Z 13005KT 27/19 A2993 RMK A01 T02690192  RH  063%=      5-min Rain = 0
KMC1 250001Z 12006KT 27/19 A2993 RMK A01 T02680193  RH  063%=      5-min Rain = 0
KMC1 250002Z 12008KT 27/19 A2993 RMK A01 T02680192  RH  063%=      5-min Rain = 0
KMC1 250003Z 12007KT 27/19 A2993 RMK A01 T02680192  RH  063%=      5-min Rain = 0
KMC1 250004Z 13007KT 27/19 A2993 RMK A01 T02680192  RH  063%=      5-min Rain = 0
KMC1 250005Z 12007G12KT 27/19 A2993 RMK A01 T02680192  RH  063%=      5-min Rain = 0
KMC1 250006Z 12008KT 27/19 A2993 RMK A01 T02680191  RH  063%=      5-min Rain = 0
KMC1 250007Z 13007KT 27/19 A2993 RMK A01 T02680192  RH  063%=      5-min Rain = 0
KMC1 250008Z 13007KT 27/19 A2993 RMK A01 T02680193  RH  063%=      5-min Rain = 0
KMC1 250009Z 12007KT 27/19 A2993 RMK A01 T02680193  RH  063%=      5-min Rain = 0
KMC1 250010Z 13008KT 27/19 A2993 RMK A01 T02680193  RH  064%=      5-min Rain = 0
KMC1 250011Z 13006KT 27/19 A2993 RMK A01 T02670193  RH  064%=      5-min Rain = 0
KMC1 250012Z 14006KT 27/19 A2993 RMK A01 T02670193  RH  064%=      5-min Rain = 0
KMC1 250013Z 13007KT 27/19 A2993 RMK A01 T02670194  RH  064%=      5-min Rain = 0
KMC1 250014Z 13008KT 27/19 A2993 RMK A01 T02670193  RH  064%=      5-min Rain = 0
KMC1 250015Z 13008KT 27/19 A2992 RMK A01 T02660193  RH  064%=      5-min Rain = 0
KMC1 250016Z 13008KT 27/19 A2992 RMK A01 T02660193  RH  064%=      5-min Rain = 0
KMC1 250017Z 13008KT 27/19 A2992 RMK A01 T02660193  RH  064%=      5-min Rain = 0
KMC1 250018Z 13007KT 27/19 A2992 RMK A01 T02660194  RH  065%=      5-min Rain = 0
KMC1 250019Z 13007KT 27/19 A2992 RMK A01 T02660194  RH  065%=      5-min Rain = 0
KMC1 250020Z 14007KT 27/19 A2992 RMK A01 T02650194  RH  065%=      5-min Rain = 0
KMC1 250021Z 13007KT 27/19 A2993 RMK A01 T02650194  RH  065%=      5-min Rain = 0
KMC1 250022Z 13005KT 27/19 A2993 RMK A01 T02650194  RH  065%=      5-min Rain = 0
KMC1 250023Z 14005KT 27/19 A2993 RMK A01 T02650194  RH  065%=      5-min Rain = 0
KMC1 250024Z 14006KT 27/19 A2993 RMK A01 T02650194  RH  065%=      5-min Rain = 0
KMC1 250025Z 13007KT 27/19 A2993 RMK A01 T02650194  RH  065%=      5-min Rain = 0
KMC1 250026Z 14005KT 26/19 A2993 RMK A01 T02640194  RH  065%=      5-min Rain = 0
KMC1 250027Z 13004KT 27/19 A2993 RMK A01 T02650194  RH  065%=      5-min Rain = 0
KMC1 250028Z 14005KT 26/20 A2993 RMK A01 T02640195  RH  065%=      5-min Rain = 0
KMC1 250029Z 13005KT 26/20 A2993 RMK A01 T02640195  RH  066%=      5-min Rain = 0
KMC1 250030Z 13009KT 26/19 A2993 RMK A01 T02640194  RH  066%=      5-min Rain = 0
KMC1 250031Z 13009KT 26/19 A2993 RMK A01 T02640192  RH  065%=      5-min Rain = 0
KMC1 250032Z 13006KT 27/19 A2993 RMK A01 T02650193  RH  065%=      5-min Rain = 0
KMC1 250033Z 13007KT 27/19 A2993 RMK A01 T02650194  RH  065%=      5-min Rain = 0
KMC1 250034Z 13008KT 27/19 A2993 RMK A01 T02650194  RH  065%=      5-min Rain = 0
KMC1 250035Z 13008KT 27/19 A2993 RMK A01 T02650193  RH  065%=      5-min Rain = 0
KMC1 250036Z 13007KT 27/19 A2993 RMK A01 T02650193  RH  065%=      5-min Rain = 0
KMC1 250037Z 13005KT 27/19 A2993 RMK A01 T02650193  RH  065%=      5-min Rain = 0
KMC1 250038Z 13007KT 27/19 A2993 RMK A01 T02650194  RH  065%=      5-min Rain = 0
KMC1 250039Z 13007KT 26/19 A2993 RMK A01 T02640194  RH  065%=      5-min Rain = 0
KMC1 250040Z 13008KT 27/19 A2993 RMK A01 T02650194  RH  065%=      5-min Rain = 0
KMC1 250041Z 13007KT 26/19 A2993 RMK A01 T02640194  RH  065%=      5-min Rain = 0
KMC1 250042Z 12009KT 26/19 A2993 RMK A01 T02640194  RH  065%=      5-min Rain = 0
KMC1 250043Z 13008G13KT 26/19 A2993 RMK A01 T02640193  RH  065%=      5-min Rain = 0
KMC1 250044Z 13008KT 26/19 A2992 RMK A01 T02640193  RH  065%=      5-min Rain = 0
KMC1 250045Z 13008KT 26/19 A2992 RMK A01 T02640192  RH  065%=      5-min Rain = 0
KMC1 250046Z 12007KT 26/19 A2992 RMK A01 T02640193  RH  065%=      5-min Rain = 0
KMC1 250047Z 13009KT 26/19 A2992 RMK A01 T02640193  RH  065%=      5-min Rain = 0
KMC1 250048Z 13008KT 26/19 A2992 RMK A01 T02640192  RH  065%=      5-min Rain = 0
KMC1 250049Z 12008G13KT 26/19 A2992 RMK A01 T02640193  RH  065%=      5-min Rain = 0
KMC1 250050Z 12007KT 27/19 A2992 RMK A01 T02650193  RH  065%=      5-min Rain = 0
KMC1 250051Z 13008KT 26/19 A2992 RMK A01 T02640193  RH  065%=      5-min Rain = 0
KMC1 250052Z 13008KT 26/19 A2992 RMK A01 T02640192  RH  065%=      5-min Rain = 0
KMC1 250053Z 12009G14KT 26/19 A2992 RMK A01 T02640192  RH  065%=      5-min Rain = 0
KMC1 250054Z 13010G15KT 26/19 A2992 RMK A01 T02640191  RH  064%=      5-min Rain = 0
KMC1 250055Z 13009KT 26/19 A2992 RMK A01 T02640191  RH  064%=      5-min Rain = 0
KMC1 250056Z 13008KT 27/19 A2992 RMK A01 T02650191  RH  064%=      5-min Rain = 0
KMC1 250057Z 12008KT 27/19 A2992 RMK A01 T02650191  RH  064%=      5-min Rain = 0
KMC1 250058Z 13006KT 26/19 A2992 RMK A01 T02640191  RH  064%=      5-min Rain = 0
KMC1 250059Z 13005KT 26/19 A2993 RMK A01 T02640192  RH  064%=      5-min Rain = 0
KMC1 250100Z 13006KT 26/19 A2993 RMK A01 T02640193  RH  065%=      5-min Rain = 0
KMC1 250101Z 12009KT 26/19 A2993 RMK A01 T02630192  RH  065%=      5-min Rain = 0
KMC1 250102Z 13008KT 26/19 A2993 RMK A01 T02630191  RH  064%=      5-min Rain = 0
KMC1 250103Z 13007KT 26/19 A2993 RMK A01 T02630191  RH  065%=      5-min Rain = 0
KMC1 250104Z 12006KT 26/19 A2993 RMK A01 T02640192  RH  065%=      5-min Rain = 0
KMC1 250105Z 13005KT 26/19 A2993 RMK A01 T02630192  RH  065%=      5-min Rain = 0
KMC1 250106Z 12007KT 26/19 A2993 RMK A01 T02620192  RH  065%=      5-min Rain = 0
KMC1 250107Z 12008KT 26/19 A2993 RMK A01 T02620192  RH  065%=      5-min Rain = 0
KMC1 250108Z 11005KT 26/19 A2993 RMK A01 T02620192  RH  065%=      5-min Rain = 0
KMC1 250109Z 12006KT 26/19 A2993 RMK A01 T02620193  RH  066%=      5-min Rain = 0
KMC1 250110Z 11005KT 26/19 A2993 RMK A01 T02610193  RH  066%=      5-min Rain = 0
KMC1 250111Z 11005KT 26/19 A2993 RMK A01 T02610193  RH  066%=      5-min Rain = 0
KMC1 250112Z 12005KT 26/19 A2993 RMK A01 T02600193  RH  067%=      5-min Rain = 0
KMC1 250113Z 11005KT 26/19 A2993 RMK A01 T02600193  RH  067%=      5-min Rain = 0
KMC1 250114Z 11006KT 26/19 A2993 RMK A01 T02600193  RH  067%=      5-min Rain = 0
KMC1 250115Z 11005KT 26/19 A2993 RMK A01 T02600194  RH  067%=      5-min Rain = 0
KMC1 250116Z 11004KT 26/19 A2994 RMK A01 T02600194  RH  067%=      5-min Rain = 0
KMC1 250117Z 12007KT 26/19 A2994 RMK A01 T02590194  RH  067%=      5-min Rain = 0
KMC1 250118Z 12007KT 26/19 A2994 RMK A01 T02600194  RH  067%=      5-min Rain = 0
KMC1 250119Z 12007KT 26/19 A2994 RMK A01 T02600194  RH  067%=      5-min Rain = 0
KMC1 250120Z 13007KT 26/19 A2994 RMK A01 T02590194  RH  067%=      5-min Rain = 0
KMC1 250121Z 12006KT 26/19 A2994 RMK A01 T02590194  RH  067%=      5-min Rain = 0
KMC1 250122Z 13005KT 26/19 A2994 RMK A01 T02590194  RH  067%=      5-min Rain = 0
KMC1 250123Z 12005KT 26/20 A2994 RMK A01 T02590195  RH  068%=      5-min Rain = 0
KMC1 250124Z 12006KT 26/20 A2994 RMK A01 T02580195  RH  068%=      5-min Rain = 0
KMC1 250125Z 12007KT 26/20 A2994 RMK A01 T02580195  RH  068%=      5-min Rain = 0
KMC1 250126Z 13009KT 26/19 A2994 RMK A01 T02580194  RH  068%=      5-min Rain = 0
KMC1 250127Z 13007KT 26/19 A2994 RMK A01 T02580194  RH  068%=      5-min Rain = 0
KMC1 250128Z 12007KT 26/19 A2994 RMK A01 T02590194  RH  068%=      5-min Rain = 0
KMC1 250129Z 12007KT 26/20 A2994 RMK A01 T02580195  RH  068%=      5-min Rain = 0
KMC1 250130Z 12006KT 26/19 A2994 RMK A01 T02580194  RH  068%=      5-min Rain = 0
KMC1 250131Z 13006KT 26/19 A2994 RMK A01 T02580194  RH  068%=      5-min Rain = 0
KMC1 250132Z 13008KT 26/19 A2995 RMK A01 T02580194  RH  068%=      5-min Rain = 0
KMC1 250133Z 13007KT 26/19 A2995 RMK A01 T02580193  RH  068%=      5-min Rain = 0
KMC1 250134Z 13007KT 26/19 A2995 RMK A01 T02570193  RH  068%=      5-min Rain = 0
KMC1 250135Z 13005KT 26/19 A2995 RMK A01 T02580194  RH  068%=      5-min Rain = 0
KMC1 250136Z 12005KT 26/19 A2995 RMK A01 T02580194  RH  068%=      5-min Rain = 0
KMC1 250137Z 13006KT 26/19 A2995 RMK A01 T02580194  RH  068%=      5-min Rain = 0
KMC1 250138Z 12006KT 26/19 A2995 RMK A01 T02580194  RH  068%=      5-min Rain = 0
KMC1 250139Z 12005KT 26/19 A2995 RMK A01 T02570193  RH  068%=      5-min Rain = 0
KMC1 250140Z 12006KT 26/19 A2995 RMK A01 T02580193  RH  068%=      5-min Rain = 0
KMC1 250141Z 12005KT 26/19 A2995 RMK A01 T02570193  RH  068%=      5-min Rain = 0
KMC1 250142Z 12006KT 26/19 A2995 RMK A01 T02580194  RH  068%=      5-min Rain = 0
KMC1 250143Z 12004KT 26/19 A2995 RMK A01 T02570194  RH  068%=      5-min Rain = 0
KMC1 250144Z 12006KT 26/19 A2995 RMK A01 T02560194  RH  069%=      5-min Rain = 0
KMC1 250145Z 12005KT 26/19 A2995 RMK A01 T02560194  RH  069%=      5-min Rain = 0
KMC1 250146Z 12005KT 26/19 A2995 RMK A01 T02550194  RH  069%=      5-min Rain = 0
KMC1 250147Z 12006KT 26/19 A2995 RMK A01 T02550194  RH  069%=      5-min Rain = 0
KMC1 250148Z 12007KT 25/19 A2995 RMK A01 T02540194  RH  069%=      5-min Rain = 0
KMC1 250149Z 12007KT 25/19 A2995 RMK A01 T02540194  RH  069%=      5-min Rain = 0
KMC1 250150Z 12006KT 25/19 A2995 RMK A01 T02540194  RH  069%=      5-min Rain = 0
KMC1 250151Z 12006KT 25/19 A2995 RMK A01 T02530194  RH  070%=      5-min Rain = 0
KMC1 250152Z 13007KT 25/19 A2995 RMK A01 T02530194  RH  070%=      5-min Rain = 0
KMC1 250153Z 12008KT 25/19 A2995 RMK A01 T02530194  RH  070%=      5-min Rain = 0
KMC1 250154Z 13006KT 25/19 A2995 RMK A01 T02530194  RH  069%=      5-min Rain = 0
KMC1 250155Z 13005KT 25/19 A2995 RMK A01 T02540194  RH  069%=      5-min Rain = 0
KMC1 250156Z 12005KT 25/19 A2995 RMK A01 T02540194  RH  070%=      5-min Rain = 0
KMC1 250157Z 12009KT 25/19 A2995 RMK A01 T02530194  RH  070%=      5-min Rain = 0
KMC1 250158Z 13008KT 25/19 A2995 RMK A01 T02540194  RH  070%=      5-min Rain = 0
KMC1 250159Z 13006KT 25/19 A2996 RMK A01 T02530194  RH  070%=      5-min Rain = 0
KMC1 250200Z 14005KT 25/19 A2996 RMK A01 T02530194  RH  070%=      5-min Rain = 0
KMC1 250201Z 13006KT 25/20 A2995 RMK A01 T02530195  RH  070%=      5-min Rain = 0
KMC1 250202Z 13006KT 25/19 A2995 RMK A01 T02530194  RH  070%=      5-min Rain = 0
KMC1 250203Z 12006KT 25/19 A2995 RMK A01 T02530194  RH  070%=      5-min Rain = 0
KMC1 250204Z 13006KT 25/19 A2996 RMK A01 T02530194  RH  070%=      5-min Rain = 0
KMC1 250205Z 12005KT 25/19 A2996 RMK A01 T02520194  RH  070%=      5-min Rain = 0
KMC1 250206Z 13007KT 25/20 A2996 RMK A01 T02520195  RH  070%=      5-min Rain = 0
KMC1 250207Z 12007KT 25/20 A2996 RMK A01 T02520195  RH  070%=      5-min Rain = 0
KMC1 250208Z 12007KT 25/20 A2996 RMK A01 T02520195  RH  071%=      5-min Rain = 0
KMC1 250209Z 13007KT 25/20 A2996 RMK A01 T02520195  RH  071%=      5-min Rain = 0
KMC1 250210Z 12008KT 25/20 A2996 RMK A01 T02520195  RH  071%=      5-min Rain = 0
KMC1 250211Z 13007KT 25/20 A2996 RMK A01 T02520195  RH  071%=      5-min Rain = 0
KMC1 250212Z 13008KT 25/20 A2996 RMK A01 T02520195  RH  070%=      5-min Rain = 0
KMC1 250213Z 12009KT 25/19 A2996 RMK A01 T02520194  RH  070%=      5-min Rain = 0
KMC1 250214Z 12008KT 25/19 A2996 RMK A01 T02520194  RH  070%=      5-min Rain = 0
KMC1 250215Z 12006KT 25/20 A2996 RMK A01 T02520195  RH  070%=      5-min Rain = 0
KMC1 250216Z 11006G11KT 25/20 A2996 RMK A01 T02520195  RH  070%=      5-min Rain = 0
KMC1 250217Z 12007KT 25/20 A2996 RMK A01 T02520195  RH  071%=      5-min Rain = 0
KMC1 250218Z 13007KT 25/20 A2996 RMK A01 T02520195  RH  071%=      5-min Rain = 0
KMC1 250219Z 12007KT 25/20 A2996 RMK A01 T02520195  RH  071%=      5-min Rain = 0
KMC1 250220Z 12007KT 25/20 A2996 RMK A01 T02510195  RH  071%=      5-min Rain = 0
KMC1 250221Z 13006KT 25/20 A2996 RMK A01 T02510195  RH  071%=      5-min Rain = 0
KMC1 250222Z 13007KT 25/20 A2996 RMK A01 T02510195  RH  071%=      5-min Rain = 0
KMC1 250223Z 12008KT 25/20 A2995 RMK A01 T02510195  RH  071%=      5-min Rain = 0
KMC1 250224Z 11009KT 25/20 A2995 RMK A01 T02510195  RH  071%=      5-min Rain = 0
KMC1 250225Z 12009KT 25/20 A2995 RMK A01 T02510195  RH  071%=      5-min Rain = 0
KMC1 250226Z 12010KT 25/19 A2995 RMK A01 T02510194  RH  071%=      5-min Rain = 0
KMC1 250227Z 13010G15KT 25/19 A2995 RMK A01 T02510194  RH  071%=      5-min Rain = 0
KMC1 250228Z 13009KT 25/20 A2995 RMK A01 T02520195  RH  071%=      5-min Rain = 0
KMC1 250229Z 12009KT 25/20 A2995 RMK A01 T02510195  RH  071%=      5-min Rain = 0
KMC1 250230Z 12010KT 25/20 A2995 RMK A01 T02510195  RH  071%=      5-min Rain = 0
KMC1 250231Z 12008KT 25/20 A2995 RMK A01 T02510195  RH  071%=      5-min Rain = 0
KMC1 250232Z 12008KT 25/20 A2995 RMK A01 T02510195  RH  071%=      5-min Rain = 0
KMC1 250233Z 12008KT 25/20 A2995 RMK A01 T02500195  RH  071%=      5-min Rain = 0
KMC1 250234Z 12010KT 25/20 A2995 RMK A01 T02500195  RH  071%=      5-min Rain = 0
KMC1 250235Z 11009KT 25/20 A2995 RMK A01 T02500195  RH  072%=      5-min Rain = 0
KMC1 250236Z 11011KT 25/20 A2995 RMK A01 T02490195  RH  072%=      5-min Rain = 0
KMC1 250237Z 12009KT 25/19 A2994 RMK A01 T02490194  RH  072%=      5-min Rain = 0
KMC1 250238Z 12009KT 25/20 A2995 RMK A01 T02490195  RH  072%=      5-min Rain = 0
KMC1 250239Z 12008KT 25/20 A2995 RMK A01 T02490195  RH  072%=      5-min Rain = 0
KMC1 250240Z 11009KT 25/20 A2995 RMK A01 T02490195  RH  072%=      5-min Rain = 0
KMC1 250241Z 12008KT 25/20 A2995 RMK A01 T02490195  RH  072%=      5-min Rain = 0
KMC1 250242Z 13009KT 25/20 A2995 RMK A01 T02480195  RH  072%=      5-min Rain = 0
KMC1 250243Z 12009G14KT 25/20 A2995 RMK A01 T02480195  RH  072%=      5-min Rain = 0
KMC1 250244Z 12009KT 25/20 A2995 RMK A01 T02480195  RH  072%=      5-min Rain = 0
KMC1 250245Z 13008KT 25/20 A2996 RMK A01 T02480195  RH  072%=      5-min Rain = 0
KMC1 250246Z 12010KT 25/20 A2996 RMK A01 T02480195  RH  072%=      5-min Rain = 0
KMC1 250247Z 13009KT 25/20 A2996 RMK A01 T02480195  RH  072%=      5-min Rain = 0
KMC1 250248Z 12007KT 25/20 A2996 RMK A01 T02480195  RH  072%=      5-min Rain = 0
KMC1 250249Z 13009KT 25/20 A2996 RMK A01 T02490195  RH  072%=      5-min Rain = 0
KMC1 250250Z 13011KT 25/20 A2996 RMK A01 T02480195  RH  072%=      5-min Rain = 0
KMC1 250251Z 13008KT 25/20 A2996 RMK A01 T02480195  RH  072%=      5-min Rain = 0
KMC1 250252Z 12007KT 25/20 A2996 RMK A01 T02480195  RH  072%=      5-min Rain = 0
KMC1 250253Z 12010KT 25/20 A2996 RMK A01 T02470195  RH  073%=      5-min Rain = 0
KMC1 250254Z 12008KT 25/20 A2996 RMK A01 T02470195  RH  073%=      5-min Rain = 0
KMC1 250255Z 12008KT 25/20 A2996 RMK A01 T02470195  RH  073%=      5-min Rain = 0
KMC1 250256Z 12010KT 25/20 A2996 RMK A01 T02470195  RH  073%=      5-min Rain = 0
KMC1 250257Z 12011KT 25/20 A2996 RMK A01 T02470195  RH  073%=      5-min Rain = 0
KMC1 250258Z 12009KT 25/20 A2996 RMK A01 T02470195  RH  073%=      5-min Rain = 0
KMC1 250259Z 12008KT 25/20 A2996 RMK A01 T02470195  RH  073%=      5-min Rain = 0
KMC1 250300Z 12011KT 25/20 A2996 RMK A01 T02470195  RH  073%=      5-min Rain = 0
KMC1 250301Z 13014KT 25/19 A2996 RMK A01 T02460194  RH  073%=      5-min Rain = 0
KMC1 250302Z 13011G17KT 25/19 A2996 RMK A01 T02470194  RH  072%=      5-min Rain = 0
KMC1 250303Z 13012KT 25/19 A2996 RMK A01 T02470194  RH  072%=      5-min Rain = 0
KMC1 250304Z 13010KT 25/19 A2996 RMK A01 T02470194  RH  072%=      5-min Rain = 0
KMC1 250305Z 12012KT 25/19 A2996 RMK A01 T02470194  RH  072%=      5-min Rain = 0
KMC1 250306Z 13012G18KT 25/19 A2996 RMK A01 T02470193  RH  072%=      5-min Rain = 0
KMC1 250307Z 13008KT 25/19 A2996 RMK A01 T02470193  RH  072%=      5-min Rain = 0
KMC1 250308Z 13008KT 25/19 A2996 RMK A01 T02470193  RH  072%=      5-min Rain = 0
KMC1 250309Z 13008KT 25/19 A2997 RMK A01 T02460193  RH  072%=      5-min Rain = 0
KMC1 250310Z 13010KT 25/19 A2997 RMK A01 T02450192  RH  072%=      5-min Rain = 0
KMC1 250311Z 14011G18KT 25/19 A2997 RMK A01 T02450193  RH  072%=      5-min Rain = 0
KMC1 250312Z 13008KT 25/19 A2997 RMK A01 T02450192  RH  072%=      5-min Rain = 0
KMC1 250313Z 13012KT 25/19 A2996 RMK A01 T02450192  RH  072%=      5-min Rain = 0
KMC1 250314Z 13012G17KT 25/19 A2996 RMK A01 T02450191  RH  072%=      5-min Rain = 0
KMC1 250315Z 12010G15KT 25/19 A2996 RMK A01 T02460191  RH  071%=      5-min Rain = 0
KMC1 250316Z 13010G15KT 25/19 A2996 RMK A01 T02460191  RH  071%=      5-min Rain = 0
KMC1 250317Z 13008KT 25/19 A2997 RMK A01 T02450191  RH  072%=      5-min Rain = 0
KMC1 250318Z 13010KT 25/19 A2997 RMK A01 T02450191  RH  072%=      5-min Rain = 0
KMC1 250319Z 14010KT 25/19 A2997 RMK A01 T02450191  RH  072%=      5-min Rain = 0
KMC1 250320Z 14008KT 25/19 A2997 RMK A01 T02450191  RH  072%=      5-min Rain = 0
KMC1 250321Z 14009KT 24/19 A2997 RMK A01 T02440191  RH  072%=      5-min Rain = 0
KMC1 250322Z 14009G14KT 24/19 A2997 RMK A01 T02440191  RH  072%=      5-min Rain = 0
KMC1 250323Z 14010G15KT 24/19 A2997 RMK A01 T02440191  RH  072%=      5-min Rain = 0
KMC1 250324Z 13011KT 24/19 A2997 RMK A01 T02440190  RH  072%=      5-min Rain = 0
KMC1 250325Z 14010KT 24/19 A2997 RMK A01 T02440190  RH  072%=      5-min Rain = 0
KMC1 250326Z 13009KT 24/19 A2997 RMK A01 T02440190  RH  072%=      5-min Rain = 0
KMC1 250327Z 14011KT 24/19 A2997 RMK A01 T02440190  RH  072%=      5-min Rain = 0
KMC1 250328Z 13008KT 24/19 A2997 RMK A01 T02440190  RH  072%=      5-min Rain = 0
KMC1 250329Z 13008KT 24/19 A2997 RMK A01 T02440190  RH  072%=      5-min Rain = 0
KMC1 250330Z 14010KT 24/19 A2997 RMK A01 T02440190  RH  072%=      5-min Rain = 0
KMC1 250331Z 13011KT 24/19 A2997 RMK A01 T02430190  RH  072%=      5-min Rain = 0
KMC1 250332Z 13010KT 24/19 A2997 RMK A01 T02430190  RH  072%=      5-min Rain = 0
KMC1 250333Z 13009KT 24/19 A2997 RMK A01 T02430189  RH  072%=      5-min Rain = 0
KMC1 250334Z 12009KT 24/19 A2997 RMK A01 T02430189  RH  072%=      5-min Rain = 0
KMC1 250335Z 13006KT 24/19 A2997 RMK A01 T02430190  RH  072%=      5-min Rain = 0
KMC1 250336Z 14012G17KT 24/19 A2997 RMK A01 T02420190  RH  072%=      5-min Rain = 0
KMC1 250337Z 13009G15KT 24/19 A2997 RMK A01 T02420190  RH  072%=      5-min Rain = 0
KMC1 250338Z 13007G14KT 24/19 A2997 RMK A01 T02420190  RH  072%=      5-min Rain = 0
KMC1 250339Z 13009KT 24/19 A2997 RMK A01 T02420190  RH  073%=      5-min Rain = 0
KMC1 250340Z 14006KT 24/19 A2997 RMK A01 T02420190  RH  073%=      5-min Rain = 0
KMC1 250341Z 12010G15KT 24/19 A2997 RMK A01 T02410190  RH  073%=      5-min Rain = 0
KMC1 250342Z 13010KT 24/19 A2997 RMK A01 T02410190  RH  073%=      5-min Rain = 0
KMC1 250343Z 13008G14KT 24/19 A2997 RMK A01 T02410190  RH  073%=      5-min Rain = 0
KMC1 250344Z 13011KT 24/19 A2997 RMK A01 T02410190  RH  073%=      5-min Rain = 0
KMC1 250345Z 13011KT 24/19 A2997 RMK A01 T02410189  RH  073%=      5-min Rain = 0
KMC1 250346Z 12014KT 24/19 A2996 RMK A01 T02410190  RH  073%=      5-min Rain = 0
KMC1 250347Z 13010KT 24/19 A2996 RMK A01 T02410190  RH  073%=      5-min Rain = 0
KMC1 250348Z 13008KT 24/19 A2996 RMK A01 T02420190  RH  073%=      5-min Rain = 0
KMC1 250349Z 13011KT 24/19 A2996 RMK A01 T02410190  RH  073%=      5-min Rain = 0
KMC1 250350Z 13012KT 24/19 A2996 RMK A01 T02410191  RH  073%=      5-min Rain = 0
KMC1 250351Z 13010KT 24/19 A2996 RMK A01 T02410190  RH  073%=      5-min Rain = 0
KMC1 250352Z 12011KT 24/19 A2996 RMK A01 T02410191  RH  073%=      5-min Rain = 0
KMC1 250353Z 12012KT 24/19 A2996 RMK A01 T02410190  RH  073%=      5-min Rain = 0
KMC1 250354Z 12008KT 24/19 A2996 RMK A01 T02410190  RH  073%=      5-min Rain = 0
KMC1 250355Z 12009KT 24/19 A2996 RMK A01 T02400191  RH  074%=      5-min Rain = 0
KMC1 250356Z 13011KT 24/19 A2996 RMK A01 T02400191  RH  074%=      5-min Rain = 0
KMC1 250357Z 12010KT 24/19 A2996 RMK A01 T02390190  RH  074%=      5-min Rain = 0
KMC1 250358Z 13008KT 24/19 A2996 RMK A01 T02390190  RH  074%=      5-min Rain = 0
KMC1 250359Z 12010KT 24/19 A2996 RMK A01 T02390191  RH  074%=      5-min Rain = 0
KMC1 250400Z 13009KT 24/19 A2996 RMK A01 T02390190  RH  074%=      5-min Rain = 0
KMC1 250401Z 13008G13KT 24/19 A2996 RMK A01 T02390191  RH  074%=      5-min Rain = 0
KMC1 250402Z 12008KT 24/19 A2996 RMK A01 T02390191  RH  074%=      5-min Rain = 0
KMC1 250403Z 14008G13KT 24/19 A2996 RMK A01 T02380191  RH  075%=      5-min Rain = 0
KMC1 250404Z 14010KT 24/19 A2997 RMK A01 T02380191  RH  075%=      5-min Rain = 0
KMC1 250405Z 12010G15KT 24/19 A2997 RMK A01 T02380191  RH  075%=      5-min Rain = 0
KMC1 250406Z 13011KT 24/19 A2997 RMK A01 T02380191  RH  075%=      5-min Rain = 0
KMC1 250407Z 13007KT 24/19 A2997 RMK A01 T02380191  RH  075%=      5-min Rain = 0
KMC1 250408Z 13008KT 24/19 A2997 RMK A01 T02380192  RH  075%=      5-min Rain = 0
KMC1 250409Z 13009G14KT 24/19 A2997 RMK A01 T02380192  RH  075%=      5-min Rain = 0
KMC1 250410Z 13015KT 24/19 A2997 RMK A01 T02370192  RH  075%=      5-min Rain = 0
KMC1 250411Z 12011KT 24/19 A2997 RMK A01 T02380192  RH  075%=      5-min Rain = 0
KMC1 250412Z 12009KT 24/19 A2997 RMK A01 T02380192  RH  075%=      5-min Rain = 0
KMC1 250413Z 13009KT 24/19 A2997 RMK A01 T02380192  RH  075%=      5-min Rain = 0
KMC1 250414Z 12007KT 24/19 A2997 RMK A01 T02380192  RH  075%=      5-min Rain = 0
KMC1 250415Z 13009KT 24/19 A2997 RMK A01 T02370192  RH  076%=      5-min Rain = 0
KMC1 250416Z 14010G15KT 24/19 A2997 RMK A01 T02370192  RH  076%=      5-min Rain = 0
KMC1 250417Z 13012KT 24/19 A2997 RMK A01 T02370192  RH  076%=      5-min Rain = 0
KMC1 250418Z 13013KT 24/19 A2997 RMK A01 T02370192  RH  076%=      5-min Rain = 0
KMC1 250419Z 13012G17KT 24/19 A2997 RMK A01 T02370192  RH  076%=      5-min Rain = 0
KMC1 250420Z 13014KT 24/19 A2996 RMK A01 T02370192  RH  076%=      5-min Rain = 0
KMC1 250421Z 14013KT 24/19 A2996 RMK A01 T02370192  RH  076%=      5-min Rain = 0
KMC1 250422Z 13010KT 24/19 A2996 RMK A01 T02370192  RH  076%=      5-min Rain = 0
KMC1 250423Z 13011KT 24/19 A2996 RMK A01 T02370193  RH  076%=      5-min Rain = 0
KMC1 250424Z 13014G19KT 24/19 A2996 RMK A01 T02360193  RH  076%=      5-min Rain = 0
KMC1 250425Z 13010KT 24/19 A2996 RMK A01 T02360193  RH  076%=      5-min Rain = 0
KMC1 250426Z 13010G15KT 24/19 A2996 RMK A01 T02370193  RH  077%=      5-min Rain = 0
KMC1 250427Z 13013KT 24/19 A2996 RMK A01 T02360193  RH  077%=      5-min Rain = 0
KMC1 250428Z 13012G17KT 24/19 A2996 RMK A01 T02360193  RH  077%=      5-min Rain = 0
KMC1 250429Z 13012KT 24/19 A2996 RMK A01 T02360193  RH  077%=      5-min Rain = 0
KMC1 250430Z 13011G17KT 24/19 A2996 RMK A01 T02360193  RH  077%=      5-min Rain = 0
KMC1 250431Z 13011G16KT 24/19 A2996 RMK A01 T02360193  RH  077%=      5-min Rain = 0
KMC1 250432Z 12012KT 24/19 A2996 RMK A01 T02360193  RH  077%=      5-min Rain = 0
KMC1 250433Z 13012KT 24/19 A2996 RMK A01 T02360193  RH  077%=      5-min Rain = 0
KMC1 250434Z 13010KT 24/19 A2996 RMK A01 T02360193  RH  077%=      5-min Rain = 0
KMC1 250435Z 13010G15KT 24/19 A2996 RMK A01 T02360193  RH  077%=      5-min Rain = 0
KMC1 250436Z 13010KT 24/19 A2996 RMK A01 T02360193  RH  077%=      5-min Rain = 0
KMC1 250437Z 12010KT 24/19 A2996 RMK A01 T02360193  RH  077%=      5-min Rain = 0
KMC1 250438Z 12009KT 24/19 A2996 RMK A01 T02350193  RH  077%=      5-min Rain = 0
KMC1 250439Z 12012KT 24/19 A2996 RMK A01 T02350193  RH  077%=      5-min Rain = 0
KMC1 250440Z 13008G13KT 24/19 A2997 RMK A01 T02350193  RH  077%=      5-min Rain = 0
KMC1 250441Z 12009KT 24/19 A2996 RMK A01 T02350193  RH  077%=      5-min Rain = 0
KMC1 250442Z 13007KT 24/19 A2997 RMK A01 T02350193  RH  078%=      5-min Rain = 0
KMC1 250443Z 12011KT 23/19 A2997 RMK A01 T02340193  RH  078%=      5-min Rain = 0
KMC1 250444Z 13010KT 23/19 A2996 RMK A01 T02340193  RH  078%=      5-min Rain = 0
KMC1 250445Z 13012KT 23/19 A2997 RMK A01 T02340194  RH  078%=      5-min Rain = 0
KMC1 250446Z 13011KT 23/19 A2997 RMK A01 T02340194  RH  078%=      5-min Rain = 0
KMC1 250447Z 11012KT 23/19 A2997 RMK A01 T02340193  RH  078%=      5-min Rain = 0
KMC1 250448Z 13010KT 23/19 A2997 RMK A01 T02340194  RH  078%=      5-min Rain = 0
KMC1 250449Z 13010KT 23/19 A2997 RMK A01 T02340194  RH  078%=      5-min Rain = 0
KMC1 250450Z 13008KT 23/19 A2997 RMK A01 T02340194  RH  078%=      5-min Rain = 0
KMC1 250451Z 13007KT 23/19 A2997 RMK A01 T02340194  RH  078%=      5-min Rain = 0
KMC1 250452Z 14007KT 23/19 A2997 RMK A01 T02330194  RH  078%=      5-min Rain = 0
KMC1 250453Z 14009KT 23/19 A2997 RMK A01 T02330194  RH  079%=      5-min Rain = 0
KMC1 250454Z 13010KT 23/19 A2997 RMK A01 T02320194  RH  079%=      5-min Rain = 0
KMC1 250455Z 13009KT 23/19 A2997 RMK A01 T02320194  RH  079%=      5-min Rain = 0
KMC1 250456Z 13009KT 23/19 A2996 RMK A01 T02320194  RH  079%=      5-min Rain = 0
KMC1 250457Z 13010G15KT 23/19 A2996 RMK A01 T02320194  RH  079%=      5-min Rain = 0
KMC1 250458Z 13012G17KT 23/19 A2996 RMK A01 T02320194  RH  079%=      5-min Rain = 0
KMC1 250459Z 13011KT 23/19 A2996 RMK A01 T02320194  RH  079%=      5-min Rain = 0

Page generated in 0.1314 seconds.